Provisional Data: Little Juniata River near Tipton, PA


Please select a monitoring station.
Please select start date.
Please select start date.

Toggle Unit: C/F Toggle Unit: C/F
Sample Time Temperature (C) Temperature (F) Specific Conductivity (mS/cm) pH   Turbidity (NTU+) DO (mg/L)
10/20/2020 12:00:00 AM 10.79 51.422 0.495 6.98 2.54 7.17
10/20/2020 12:15:00 AM 10.8 51.44 0.493 6.95 2.86 7.19
10/20/2020 12:30:00 AM 10.81 51.458 0.493 6.93 3.02 7.39
10/20/2020 12:45:00 AM 10.81 51.458 0.493 6.93 3.03 7.2
10/20/2020 1:00:00 AM 10.82 51.476 0.491 6.95 2.83 7.46
10/20/2020 1:15:00 AM 10.82 51.476 0.491 6.94 2.83 7.56
10/20/2020 1:30:00 AM 10.83 51.494 0.49 6.97 2.69 7.32
10/20/2020 1:45:00 AM 10.84 51.512 0.494 6.95 2.8 7.76
10/20/2020 2:00:00 AM 10.84 51.512 0.493 6.96 2.84 7.44
10/20/2020 2:15:00 AM 10.84 51.512 0.488 6.95 2.92 7.31
10/20/2020 2:30:00 AM 10.85 51.53 0.487 6.96 4.54 6.99
10/20/2020 2:45:00 AM 10.85 51.53 0.486 6.97 3.03 7.77
10/20/2020 3:00:00 AM 10.86 51.548 0.487 6.97 3.05 7.6
10/20/2020 3:15:00 AM 10.86 51.548 0.486 6.99 4.01 7.2
10/20/2020 3:30:00 AM 10.87 51.566 0.486 6.95 2.81 7.61
10/20/2020 3:45:00 AM 10.87 51.566 0.485 6.97 2.89 7.66
10/20/2020 4:00:00 AM 10.88 51.584 0.488 6.98 2.76 7.6
10/20/2020 4:15:00 AM 10.88 51.584 0.484 7 4.44 7.59
10/20/2020 4:30:00 AM 10.88 51.584 0.483 6.98 2.73 7.97
10/20/2020 4:45:00 AM 10.88 51.584 0.483 7 2.77 7.89
10/20/2020 5:00:00 AM 10.89 51.602 0.483 7 2.76 7.88
10/20/2020 5:15:00 AM 10.89 51.602 0.482 6.99 3.61 8.17
10/20/2020 5:30:00 AM 10.9 51.62 0.482 6.95 3.04 7.84
10/20/2020 5:45:00 AM 10.9 51.62 0.482 6.98 3.07 7.87
10/20/2020 6:00:00 AM 10.9 51.62 0.482 6.96 3.03 7.92
10/20/2020 6:15:00 AM 10.91 51.638 0.482 6.95 5.37 7.59
10/20/2020 6:30:00 AM 10.91 51.638 0.482 6.91 3.18 7.76
10/20/2020 6:45:00 AM 10.91 51.638 0.482 6.93 3.82 7.91
10/20/2020 7:00:00 AM 10.91 51.638 0.483 6.9 4.86 7.64
10/20/2020 7:15:00 AM 10.91 51.638 0.482 6.92 3.85 7.82
10/20/2020 7:30:00 AM 10.92 51.656 0.484 6.9 4.59 7.48
10/20/2020 7:45:00 AM 10.92 51.656 0.484 6.89 2.98 7.92
10/20/2020 8:00:00 AM 10.92 51.656 0.484 6.91 2.94 7.73
10/20/2020 8:15:00 AM 10.92 51.656 0.485 6.9 3.08 7.8
10/20/2020 8:30:00 AM 10.92 51.656 0.486 6.92 4.22 7.52
10/20/2020 8:45:00 AM 10.93 51.674 0.486 6.92 3.18 7.8
10/20/2020 9:00:00 AM 10.94 51.692 0.486 6.9 3.01 7.56
10/20/2020 9:15:00 AM 10.96 51.728 0.487 6.87 2.78 7.75
10/20/2020 9:30:00 AM 10.98 51.764 0.487 6.94 4.53 7.48
10/20/2020 9:45:00 AM 11.01 51.818 0.487 6.9 3.64 8.14
10/20/2020 10:00:00 AM 11.04 51.872 0.488 6.9 3.94 7.58
10/20/2020 10:15:00 AM 11.08 51.944 0.488 6.89 2.72 7.98
10/20/2020 10:30:00 AM 11.12 52.016 0.488 6.91 2.86 7.53
10/20/2020 10:45:00 AM 11.18 52.124 0.488 6.89 2.82 7.88
10/20/2020 11:00:00 AM 11.25 52.25 0.489 6.96 3.83 7.74
10/20/2020 11:15:00 AM 11.32 52.376 0.489 7.03 3.86 8.14
10/20/2020 11:30:00 AM 11.4 52.52 0.489 7.02 4.09 8.38
10/20/2020 11:45:00 AM 11.48 52.664 0.489 7.06 3.01 8.88
10/20/2020 12:00:00 PM 11.6 52.88 0.488 7.09 2.83 8.86
10/20/2020 12:15:00 PM 11.79 53.222 0.488 7.24 4.77 9.59
10/20/2020 12:30:00 PM 11.9 53.42 0.488 7.18 2.47 9.69
10/20/2020 12:45:00 PM 11.95 53.51 0.488 7.21 4.81 9.29
10/20/2020 1:00:00 PM 12.02 53.636 0.489 7.32 5.82 9.4
10/20/2020 1:15:00 PM 12.09 53.762 0.488 7.25 4.35 9.25
10/20/2020 1:30:00 PM 12.19 53.942 0.487 7.29 2.76 9.23
10/20/2020 1:45:00 PM 12.23 54.014 0.487 7.29 2.95 8.96
10/20/2020 2:00:00 PM 12.27 54.086 0.487 7.27 2.67 8.93
10/20/2020 2:15:00 PM 12.26 54.068 0.488 7.29 4.9 9.09
10/20/2020 2:30:00 PM 12.34 54.212 0.487 7.24 3.05 8.74
10/20/2020 2:45:00 PM 12.34 54.212 0.488 7.24 5.56 8.53
10/20/2020 3:00:00 PM 12.39 54.302 0.487 7.22 3.66 8.25
10/20/2020 3:15:00 PM 12.42 54.356 0.488 7.27 6.01 8.61
10/20/2020 3:30:00 PM 12.47 54.446 0.487 7.32 5.24 8.17
10/20/2020 3:45:00 PM 12.51 54.518 0.488 7.21 4.44 8.37
10/20/2020 4:00:00 PM 12.49 54.482 0.488 7.23 3.84 7.81
10/20/2020 4:15:00 PM 12.54 54.572 0.488 7.26 3.11 8
10/20/2020 4:30:00 PM 12.55 54.59 0.489 7.28 3.74 8.37
10/20/2020 4:45:00 PM 12.55 54.59 0.489 7.21 3.46 7.9
10/20/2020 5:00:00 PM 12.54 54.572 0.49 7.24 5.66 7.86
10/20/2020 5:15:00 PM 12.57 54.626 0.49 7.14 2.77 7.68
10/20/2020 5:30:00 PM 12.57 54.626 0.49 7.11 2.96 7.6
10/20/2020 5:45:00 PM 12.58 54.644 0.491 7.12 2.85 7.2
10/20/2020 6:00:00 PM 12.57 54.626 0.492 7.17 5.14 7.74
10/20/2020 6:15:00 PM 12.58 54.644 0.492 7.11 2.81 6.8
10/20/2020 6:30:00 PM 12.56 54.608 0.493 7.12 3.96 7.23
10/20/2020 6:45:00 PM 12.56 54.608 0.493 7.04 2.58 7.35
10/20/2020 7:00:00 PM 12.55 54.59 0.493 7 2.85 6.28
10/20/2020 7:15:00 PM 12.54 54.572 0.495 7.05 3.87 6.91
10/20/2020 7:30:00 PM 12.57 54.626 0.494 7.02 2.87 7.02
10/20/2020 7:45:00 PM 12.57 54.626 0.494 7.03 2.8 7.22
10/20/2020 8:00:00 PM 12.59 54.662 0.495 7.06 5.75 7.22
10/20/2020 8:15:00 PM 12.59 54.662 0.495 7.04 3.29 7.31
10/20/2020 8:30:00 PM 12.59 54.662 0.496 6.99 3.13 6.93
10/20/2020 8:45:00 PM 12.6 54.68 0.496 6.99 2.68 6.46
10/20/2020 9:00:00 PM 12.61 54.698 0.497 7 7.53 6.94
10/20/2020 9:15:00 PM 12.61 54.698 0.496 7.03 3.24 6.86
10/20/2020 9:30:00 PM 12.63 54.734 0.497 7.02 2.91 7.07
10/20/2020 9:45:00 PM 12.63 54.734 0.497 6.99 3.14 6.85
10/20/2020 10:00:00 PM 12.63 54.734 0.497 7 4.4 6.9
10/20/2020 10:15:00 PM 12.63 54.734 0.497 6.98 2.81 7.33
10/20/2020 10:30:00 PM 12.64 54.752 0.496 6.98 3.04 6.5
10/20/2020 10:45:00 PM 12.63 54.734 0.496 7 3.39 6.72
10/20/2020 11:00:00 PM 12.64 54.752 0.496 7.01 2.96 7.22
10/20/2020 11:15:00 PM 12.64 54.752 0.496 7 4.73 7.04
10/20/2020 11:30:00 PM 12.64 54.752 0.496 7.01 2.9 7.38
10/20/2020 11:45:00 PM 12.62 54.716 0.495 6.99 2.85 7.32
10/21/2020 12:00:00 AM 12.61 54.698 0.495 6.97 2.94 7.33
10/21/2020 12:15:00 AM 12.6 54.68 0.495 6.97 2.91 6.46
10/21/2020 12:30:00 AM 12.59 54.662 0.495 6.96 4.96 6.87
10/21/2020 12:45:00 AM 12.6 54.68 0.495 7.01 4.88 7.24
10/21/2020 1:00:00 AM 12.59 54.662 0.494 6.94 3.12 7.18
10/21/2020 1:15:00 AM 12.58 54.644 0.495 6.94 3.11 6.96
10/21/2020 1:30:00 AM 12.58 54.644 0.494 6.97 2.9 6.37
10/21/2020 1:45:00 AM 12.58 54.644 0.494 6.95 2.94 6.38
10/21/2020 2:00:00 AM 12.58 54.644 0.494 6.95 5.11 6.8
10/21/2020 2:15:00 AM 12.56 54.608 0.493 6.93 3.67 6.73
10/21/2020 2:30:00 AM 12.57 54.626 0.493 6.93 3.1 6.84
10/21/2020 2:45:00 AM 12.56 54.608 0.492 6.97 4.31 6.74
10/21/2020 3:00:00 AM 12.55 54.59 0.492 6.93 3.85 6.62
10/21/2020 3:15:00 AM 12.55 54.59 0.492 6.94 5.07 6.78
10/21/2020 3:30:00 AM 12.55 54.59 0.492 6.93 3.64 6.95
10/21/2020 3:45:00 AM 12.55 54.59 0.492 6.92 3.37 6.94
10/21/2020 4:00:00 AM 12.56 54.608 0.492 6.94 6.41 6.9
10/21/2020 4:15:00 AM 12.56 54.608 0.491 6.98 3.35 7.11
10/21/2020 4:30:00 AM 12.56 54.608 0.491 6.96 6.13 6.95
10/21/2020 4:45:00 AM 12.57 54.626 0.491 6.95 4.15 7.46
10/21/2020 5:00:00 AM 12.57 54.626 0.491 6.99 3.21 7.26
10/21/2020 5:15:00 AM 12.58 54.644 0.49 6.95 3 6.93
10/21/2020 5:30:00 AM 12.58 54.644 0.49 6.95 3.66 7.22
10/21/2020 5:45:00 AM 12.59 54.662 0.49 6.98 3.4 7.06
10/21/2020 6:00:00 AM 12.59 54.662 0.489 6.96 4.34 7.34
10/21/2020 6:15:00 AM 12.58 54.644 0.491 6.94 4.02 7.2
10/21/2020 6:30:00 AM 12.58 54.644 0.49 6.92 4.62 6.83
10/21/2020 6:45:00 AM 12.58 54.644 0.49 6.91 3.61 6.51
10/21/2020 7:00:00 AM 12.59 54.662 0.49 6.91 3.37 6.35
10/21/2020 7:15:00 AM 12.59 54.662 0.49 6.91 6.03 6.43
10/21/2020 7:30:00 AM 12.61 54.698 0.489 6.94 5.31 6.35
10/21/2020 7:45:00 AM 12.61 54.698 0.489 6.91 5.3 7.27
10/21/2020 8:00:00 AM 12.61 54.698 0.489 6.92 3.92 6.52
10/21/2020 8:15:00 AM 12.61 54.698 0.49 6.94 3.98 6.59
10/21/2020 8:30:00 AM 12.62 54.716 0.49 6.92 3.96 6.65
10/21/2020 8:45:00 AM 12.64 54.752 0.49 6.92 3.88 6.7
10/21/2020 9:00:00 AM 12.66 54.788 0.49 6.93 4.98 6.81
10/21/2020 9:15:00 AM 12.69 54.842 0.491 6.93 4.14 6.47
10/21/2020 9:30:00 AM 12.71 54.878 0.491 6.98 16.56 7.09
10/21/2020 9:45:00 AM 12.73 54.914 0.491 6.96 4.5 7.17
10/21/2020 10:00:00 AM 12.78 55.004 0.491 6.97 8.79 6.71
10/21/2020 10:15:00 AM 12.83 55.094 0.492 7.01 7.15 7.33
10/21/2020 10:30:00 AM 12.89 55.202 0.492 6.99 4.74 7.44
10/21/2020 10:45:00 AM 12.98 55.364 0.492 7.05 6.25 7.66
10/21/2020 11:00:00 AM 13.13 55.634 0.492 7.06 4.88 8.27
10/21/2020 11:15:00 AM 13.24 55.832 0.494 7.07 10.73 7.88
10/21/2020 11:30:00 AM 13.37 56.066 0.493 7.1 6.61 8
10/21/2020 11:45:00 AM 13.47 56.246 0.494 7.1 6.34 7.73
10/21/2020 12:00:00 PM 13.68 56.624 0.495 7.16 11.9 8.08
10/21/2020 12:15:00 PM 13.88 56.984 0.494 7.1 9.6 7.86
10/21/2020 12:30:00 PM 13.83 56.894 0.492 7.27 3.41 6.05
10/21/2020 12:45:00 PM 14.2 57.56 0.494 7.17 5.95 8.04
10/21/2020 1:00:00 PM 14.48 58.064 0.495 7.28 12.17 8.53
10/21/2020 1:15:00 PM 14.56 58.208 0.495 7.19 8.21 8.08
10/21/2020 1:30:00 PM 14.63 58.334 0.496 7.34 11.53 7.98
10/21/2020 1:45:00 PM 14.79 58.622 0.496 7.4 14.98 8.05
10/21/2020 2:00:00 PM 14.81 58.658 0.496 7.21 6.51 7.92
10/21/2020 2:15:00 PM 14.98 58.964 0.497 7.35 12.42 7.28
10/21/2020 2:30:00 PM 15.1 59.18 0.495 7.26 5.49 7.1
10/21/2020 2:45:00 PM 15.13 59.234 0.495 7.21 7.58 6.92
10/21/2020 3:00:00 PM 15.21 59.378 0.497 7.38 18.35 7.02
10/21/2020 3:15:00 PM 15.29 59.522 0.496 7.26 6.32 6.85
10/21/2020 3:30:00 PM 15.35 59.63 0.496 7.25 6.95 6.87
10/21/2020 3:45:00 PM 15.38 59.684 0.497 7.36 12.49 6.59
10/21/2020 4:00:00 PM 15.39 59.702 0.497 7.32 13.62 6.52
10/21/2020 4:15:00 PM 15.47 59.846 0.497 7.44 12.52 7.06
10/21/2020 4:30:00 PM 15.51 59.918 0.497 7.37 15.39 7.02
10/21/2020 4:45:00 PM 15.5 59.9 0.497 7.35 10.62 6.06
10/21/2020 5:00:00 PM 15.54 59.972 0.496 7.31 5.48 6.26
10/21/2020 5:15:00 PM 15.57 60.026 0.496 7.24 4.38 5.53
10/21/2020 5:30:00 PM 15.63 60.134 0.496 7.25 7.28 6.16
10/21/2020 5:45:00 PM 15.61 60.098 0.496 7.24 6.26 6
10/21/2020 6:00:00 PM 15.61 60.098 0.496 7.24 5.79 5.75
10/21/2020 6:15:00 PM 15.61 60.098 0.496 7.27 4.81 6.23
10/21/2020 6:30:00 PM 15.55 59.99 0.497 7.3 14.94 5.49
10/21/2020 6:45:00 PM 15.55 59.99 0.497 7.23 6.28 5.44
10/21/2020 7:00:00 PM 15.56 60.008 0.497 7.2 4.72 5.14
10/21/2020 7:15:00 PM 15.52 59.936 0.497 7.2 3.94 5.37
10/21/2020 7:30:00 PM 15.47 59.846 0.497 7.15 5.16 4.51
10/21/2020 7:45:00 PM 15.43 59.774 0.497 7.17 6.94 4.82
10/21/2020 8:00:00 PM 15.41 59.738 0.497 7.18 6.86 4.76
10/21/2020 8:15:00 PM 15.38 59.684 0.498 7.2 30.96 4.5
10/21/2020 8:30:00 PM 15.38 59.684 0.497 7.18 5.72 4.75
10/21/2020 8:45:00 PM 15.38 59.684 0.497 7.19 9.94 5.15
10/21/2020 9:00:00 PM 15.42 59.756 0.497 7.24 95.63 5.69
10/21/2020 9:15:00 PM 15.31 59.558 0.497 7.17 11.58 4.85
10/21/2020 9:30:00 PM 15.28 59.504 0.498 7.13 5.06 4.31
10/21/2020 9:45:00 PM 15.28 59.504 0.497 7.11 16.26 3.74
10/21/2020 10:00:00 PM 15.27 59.486 0.498 7.12 7.25 4.28
10/21/2020 10:15:00 PM 15.29 59.522 0.497 7.11 12.26 4.4
10/21/2020 10:30:00 PM 15.27 59.486 0.498 7.08 5.18 3.53
10/21/2020 10:45:00 PM 15.28 59.504 0.497 7.07 6.08 4.42
10/21/2020 11:00:00 PM 15.27 59.486 0.497 7.05 4.43 4.18
10/21/2020 11:15:00 PM 15.26 59.468 0.497 7.09 9.43 4.29
10/21/2020 11:30:00 PM 15.31 59.558 0.497 7.09 6.55 4.56
10/21/2020 11:45:00 PM 15.29 59.522 0.497 7.1 5.58 3.81
10/22/2020 12:00:00 AM 15.3 59.54 0.497 7.12 9.56 4.34
10/22/2020 12:15:00 AM 15.3 59.54 0.497 7.12 9.83 4.35
10/22/2020 12:30:00 AM 15.31 59.558 0.496 7.15 10.43 4.44
10/22/2020 12:45:00 AM 15.29 59.522 0.495 7.1 5.41 4.36
10/22/2020 1:00:00 AM 15.29 59.522 0.494 7.09 5.98 3.82
10/22/2020 1:15:00 AM 15.28 59.504 0.494 7.08 5.02 4.02
10/22/2020 1:30:00 AM 15.26 59.468 0.494 7.07 4.99 3.55
10/22/2020 1:45:00 AM 15.25 59.45 0.493 7.08 5.06 4.54
10/22/2020 2:00:00 AM 15.23 59.414 0.492 7.09 5.99 3.98
10/22/2020 2:15:00 AM 15.2 59.36 0.492 7.07 5.89 4.14
10/22/2020 2:30:00 AM 15.14 59.252 0.492 7.05 5.11 4.07
10/22/2020 2:45:00 AM 15.13 59.234 0.49 7.06 4.73 3.7
10/22/2020 3:00:00 AM 15.1 59.18 0.491 7.12 7.32 4.7
10/22/2020 3:15:00 AM 15.09 59.162 0.488 7.09 4.95 4.45
10/22/2020 3:30:00 AM 15.06 59.108 0.488 7.12 7.46 4.85
10/22/2020 3:45:00 AM 15.03 59.054 0.489 7.1 9.34 4.65
10/22/2020 4:00:00 AM 15.01 59.018 0.487 7.08 3.72 5.04
10/22/2020 4:15:00 AM 14.97 58.946 0.487 7.11 7.47 4.58
10/22/2020 4:30:00 AM 14.92 58.856 0.494 7.14 3.44 2.59
10/22/2020 4:45:00 AM 14.92 58.856 0.486 7.07 3.79 5.25
10/22/2020 5:00:00 AM 14.9 58.82 0.486 7.11 8.37 5.15
10/22/2020 5:15:00 AM 14.88 58.784 0.485 7.11 3.52 5.64
10/22/2020 5:30:00 AM 14.85 58.73 0.486 7.08 3.44 4.24
10/22/2020 5:45:00 AM 14.84 58.712 0.485 7.13 5.01 5.18
10/22/2020 6:00:00 AM 14.82 58.676 0.485 7.09 11.08 5.07
10/22/2020 6:15:00 AM 14.8 58.64 0.485 7.1 4.05 4.6
10/22/2020 6:30:00 AM 14.79 58.622 0.485 7.11 3.5 4.68
10/22/2020 6:45:00 AM 14.75 58.55 0.484 7.13 9.6 5.35
10/22/2020 7:00:00 AM 14.71 58.478 0.485 7.15 8.37 5.47
10/22/2020 7:15:00 AM 14.69 58.442 0.485 7.18 10.14 5.75
10/22/2020 7:30:00 AM 14.67 58.406 0.485 7.17 4.45 5.78
10/22/2020 7:45:00 AM 14.66 58.388 0.484 7.22 10.97 6.66
10/22/2020 8:00:00 AM 14.65 58.37 0.484 7.21 15.94 6.69
10/22/2020 8:15:00 AM 14.64 58.352 0.484 7.2 5.81 6.62
10/22/2020 8:30:00 AM 14.63 58.334 0.485 7.18 11.56 6.04
10/22/2020 8:45:00 AM 14.63 58.334 0.486 7.13 4 5.9
10/22/2020 9:00:00 AM 14.67 58.406 0.486 7.2 16.12 6.65
10/22/2020 9:15:00 AM 14.7 58.46 0.485 7.23 5.17 7.15
10/22/2020 9:30:00 AM 14.69 58.442 0.487 7.18 15.01 6.31
10/22/2020 9:45:00 AM 14.73 58.514 0.487 7.19 9.86 6.44
10/22/2020 10:00:00 AM 14.8 58.64 0.487 7.23 3.98 6.84
10/22/2020 10:15:00 AM 14.79 58.622 0.487 7.13 3.51 6.19
10/22/2020 10:30:00 AM 14.83 58.694 0.488 7.13 3.85 5.83
10/22/2020 10:45:00 AM 14.91 58.838 0.488 7.17 6.46 5.35
10/22/2020 11:00:00 AM 15.06 59.108 0.488 7.23 4.74 6.3
10/22/2020 11:15:00 AM 15.21 59.378 0.49 7.28 8.9 6.59
10/22/2020 11:30:00 AM 15.44 59.792 0.489 7.29 6.32 7.08
10/22/2020 11:45:00 AM 15.65 60.17 0.489 7.33 7.21 7.34
10/22/2020 12:00:00 PM 15.83 60.494 0.489 7.38 8.16 7.95
10/22/2020 12:15:00 PM 16.13 61.034 0.489 7.4 5.26 7.84
10/22/2020 12:30:00 PM 16.26 61.268 0.489 7.47 10.77 7.78
10/22/2020 12:45:00 PM 16.4 61.52 0.491 7.48 9.24 7.78
10/22/2020 1:00:00 PM 16.53 61.754 0.49 7.41 4.67 7.67
10/22/2020 1:15:00 PM 16.67 62.006 0.49 7.46 6.66 7.78
10/22/2020 1:30:00 PM 16.77 62.186 0.491 7.45 4.75 7.88
10/22/2020 1:45:00 PM 16.86 62.348 0.491 7.56 4.18 7.78
10/22/2020 2:00:00 PM 16.87 62.366 0.491 7.44 4.53 7.39
10/22/2020 2:15:00 PM 17.06 62.708 0.49 7.51 4.85 8.08
10/22/2020 2:30:00 PM 17.21 62.978 0.49 7.55 101.04 7.82
10/22/2020 2:45:00 PM 17.19 62.942 0.49 7.48 20.02 7.67
10/22/2020 3:00:00 PM 17.25 63.05 0.491 7.38 9.66 7.24
10/22/2020 3:15:00 PM 17.36 63.248 0.49 7.42 5.81 7.48
10/22/2020 3:30:00 PM 17.34 63.212 0.489 7.49 9.8 6.98
10/22/2020 3:45:00 PM 17.38 63.284 0.491 7.46 10.37 6.62
10/22/2020 4:00:00 PM 17.44 63.392 0.49 7.34 4.45 6.81
10/22/2020 4:15:00 PM 17.47 63.446 0.489 7.47 8.85 6.57
10/22/2020 4:30:00 PM 17.49 63.482 0.49 7.5 6.85 6.42
10/22/2020 4:45:00 PM 17.54 63.572 0.489 7.32 5.22 6.63
10/22/2020 5:00:00 PM 17.58 63.644 0.488 7.34 4.15 6.66
10/22/2020 5:15:00 PM 17.5 63.5 0.49 7.3 5.34 6.14
10/22/2020 5:30:00 PM 17.52 63.536 0.489 7.26 3.43 5.78
10/22/2020 5:45:00 PM 17.45 63.41 0.49 7.28 5.03 5.4
10/22/2020 6:00:00 PM 17.47 63.446 0.488 7.28 2.89 5.53
10/22/2020 6:15:00 PM 17.41 63.338 0.489 7.22 3.43 5.65
10/22/2020 6:30:00 PM 17.34 63.212 0.488 7.24 3.34 5.48
10/22/2020 6:45:00 PM 17.27 63.086 0.488 7.19 3.48 5.45
10/22/2020 7:00:00 PM 17.19 62.942 0.488 7.22 8.25 5.36
10/22/2020 7:15:00 PM 17.1 62.78 0.488 7.26 6.7 5.06
10/22/2020 7:30:00 PM 17.03 62.654 0.488 7.11 4.14 4.81
10/22/2020 7:45:00 PM 16.95 62.51 0.488 7.19 5.22 5.57
10/22/2020 8:00:00 PM 16.88 62.384 0.487 7.2 3.11 5.58
10/22/2020 8:15:00 PM 16.81 62.258 0.488 7.14 3.51 5.68
10/22/2020 8:30:00 PM 16.75 62.15 0.489 7.16 2.95 5.32
10/22/2020 8:45:00 PM 16.69 62.042 0.489 7.14 3.37 4.68
10/22/2020 9:00:00 PM 16.64 61.952 0.489 7.13 3.27 5.2
10/22/2020 9:15:00 PM 16.58 61.844 0.489 7.1 3.02 4.94
10/22/2020 9:30:00 PM 16.52 61.736 0.489 7.13 3.28 4.49
10/22/2020 9:45:00 PM 16.46 61.628 0.489 7.13 6.28 4.75
10/22/2020 10:00:00 PM 16.41 61.538 0.489 7.14 4.28 5.5
10/22/2020 10:15:00 PM 16.36 61.448 0.489 7.22 5.21 5.5
10/22/2020 10:30:00 PM 16.32 61.376 0.489 7.19 10.41 5.59
10/22/2020 10:45:00 PM 16.29 61.322 0.49 7.18 5.38 4.96
10/22/2020 11:00:00 PM 16.25 61.25 0.49 7.19 5.14 5.02
10/22/2020 11:15:00 PM 16.21 61.178 0.489 7.2 5.46 4.88
10/22/2020 11:30:00 PM 16.16 61.088 0.489 7.16 5.17 5.33
10/22/2020 11:45:00 PM 16.12 61.016 0.489 7.22 5.14 6.01
10/23/2020 12:00:00 AM 16.08 60.944 0.489 7.23 4.71 6.24
10/23/2020 12:15:00 AM 16.04 60.872 0.488 7.24 5.5 6.23
10/23/2020 12:30:00 AM 15.99 60.782 0.488 7.22 5.31 6.08
10/23/2020 12:45:00 AM 15.95 60.71 0.489 7.21 6.36 6.15
10/23/2020 1:00:00 AM 15.9 60.62 0.488 7.19 4.34 6.08
10/23/2020 1:15:00 AM 15.85 60.53 0.489 7.19 4.32 4.47
10/23/2020 1:30:00 AM 15.8 60.44 0.489 7.18 10.05 5.2
10/23/2020 1:45:00 AM 15.75 60.35 0.488 7.2 14.31 6.32
10/23/2020 2:00:00 AM 15.69 60.242 0.489 7.2 9.14 6.17
10/23/2020 2:15:00 AM 15.63 60.134 0.488 7.2 7.56 6.41
10/23/2020 2:30:00 AM 15.57 60.026 0.488 7.22 4.57 6.39
10/23/2020 2:45:00 AM 15.51 59.918 0.488 7.18 4.74 6.54
10/23/2020 3:00:00 AM 15.45 59.81 0.488 7.2 3.79 5.39
10/23/2020 3:15:00 AM 15.39 59.702 0.488 7.21 3.8 6.59
10/23/2020 3:30:00 AM 15.33 59.594 0.488 7.16 6.66 6.27
10/23/2020 3:45:00 AM 15.26 59.468 0.487 7.18 3.41 6.76
10/23/2020 4:00:00 AM 15.19 59.342 0.487 7.17 6.19 6.59
10/23/2020 4:15:00 AM 15.14 59.252 0.487 7.14 5.21 6.54
10/23/2020 4:30:00 AM 15.06 59.108 0.486 7.17 3.25 6.85
10/23/2020 4:45:00 AM 14.99 58.982 0.486 7.16 3.29 6.91
10/23/2020 5:00:00 AM 14.93 58.874 0.486 7.16 3.66 6.86
10/23/2020 5:15:00 AM 14.86 58.748 0.486 7.18 5.4 6.86
10/23/2020 5:30:00 AM 14.82 58.676 0.485 7.19 4.87 6.96
10/23/2020 5:45:00 AM 14.77 58.586 0.485 7.19 5.16 6.97
10/23/2020 6:00:00 AM 14.73 58.514 0.485 7.19 2.89 6.94
10/23/2020 6:15:00 AM 14.7 58.46 0.485 7.21 6.01 6.99
10/23/2020 6:30:00 AM 14.66 58.388 0.484 7.19 2.99 7.02
10/23/2020 6:45:00 AM 14.64 58.352 0.484 7.19 3.13 7.04
10/23/2020 7:00:00 AM 14.61 58.298 0.483 7.19 4.85 7
10/23/2020 7:15:00 AM 14.59 58.262 0.483 7.17 4.87 6.96
10/23/2020 7:30:00 AM 14.55 58.19 0.483 7.18 2.83 7.14
10/23/2020 7:45:00 AM 14.52 58.136 0.483 7.17 4.87 6.9
10/23/2020 8:00:00 AM 14.48 58.064 0.482 7.19 5.11 6.93
10/23/2020 8:15:00 AM 14.44 57.992 0.482 7.17 4.8 6.97
10/23/2020 8:30:00 AM 14.42 57.956 0.482 7.18 2.79 6.97
10/23/2020 8:45:00 AM 14.38 57.884 0.481 7.19 2.88 7.17
10/23/2020 9:00:00 AM 14.37 57.866 0.481 7.19 3.78 7.19
10/23/2020 9:15:00 AM 14.4 57.92 0.482 7.21 9.69 7.32
10/23/2020 9:30:00 AM 14.42 57.956 0.481 7.21 2.95 7.73
10/23/2020 9:45:00 AM 14.44 57.992 0.482 7.24 2.69 7.69
10/23/2020 10:00:00 AM 14.48 58.064 0.482 7.27 2.75 7.91
10/23/2020 10:15:00 AM 14.57 58.226 0.483 7.28 2.64 7.57
10/23/2020 10:30:00 AM 14.67 58.406 0.483 7.28 2.89 6.62
10/23/2020 10:45:00 AM 14.77 58.586 0.484 7.34 2.78 6.58
10/23/2020 11:00:00 AM 14.96 58.928 0.484 7.36 2.74 7.85
10/23/2020 11:15:00 AM 15.19 59.342 0.485 7.47 5.14 8.72
10/23/2020 11:30:00 AM 15.41 59.738 0.485 7.49 6.28 8.94
10/23/2020 11:45:00 AM 15.56 60.008 0.485 7.49 3.25 9.08
10/23/2020 12:00:00 PM 15.76 60.368 0.486 7.56 4.46 8.9
10/23/2020 12:15:00 PM 15.94 60.692 0.487 7.62 2.87 9.42
10/23/2020 12:30:00 PM 16.12 61.016 0.487 7.6 3.68 9.17
10/23/2020 12:45:00 PM 16.27 61.286 0.488 7.6 4.7 9.03
10/23/2020 1:00:00 PM 16.42 61.556 0.488 7.58 2.75 8.9
10/23/2020 1:15:00 PM 16.55 61.79 0.489 7.55 4.6 9.04
10/23/2020 1:30:00 PM 16.69 62.042 0.489 7.54 3.79 8.88
10/23/2020 1:45:00 PM 16.77 62.186 0.49 7.52 5.57 8.43
10/23/2020 2:00:00 PM 16.85 62.33 0.491 7.67 5.91 8.63
10/23/2020 2:15:00 PM 16.95 62.51 0.491 7.51 4.45 8.33
10/23/2020 2:30:00 PM 17.03 62.654 0.492 7.54 3.15 8.39
10/23/2020 2:45:00 PM 17.07 62.726 0.492 7.67 4.97 7.67
10/23/2020 3:00:00 PM 17.2 62.96 0.492 7.51 3.76 8.5
10/23/2020 3:15:00 PM 17.29 63.122 0.493 7.69 4.89 8.05
10/23/2020 3:30:00 PM 17.32 63.176 0.492 7.56 3.32 7.59
10/23/2020 3:45:00 PM 17.35 63.23 0.493 7.68 4.6 7.93
10/23/2020 4:00:00 PM 17.42 63.356 0.493 7.5 3.1 7.34
10/23/2020 4:15:00 PM 17.43 63.374 0.493 7.43 4.22 6.89
10/23/2020 4:30:00 PM 17.46 63.428 0.493 7.46 2.72 7
10/23/2020 4:45:00 PM 17.5 63.5 0.493 7.5 2.92 6.94
10/23/2020 5:00:00 PM 17.48 63.464 0.494 7.47 2.93 6.52
10/23/2020 5:15:00 PM 17.49 63.482 0.494 7.53 4.87 7.01
10/23/2020 5:30:00 PM 17.5 63.5 0.494 7.45 4.92 7.21
10/23/2020 5:45:00 PM 17.47 63.446 0.494 7.43 3.58 6.78
10/23/2020 6:00:00 PM 17.43 63.374 0.495 7.29 4.12 5.98
10/23/2020 6:15:00 PM 17.36 63.248 0.495 7.38 3.44 5.71
10/23/2020 6:30:00 PM 17.3 63.14 0.495 7.38 3.21 5.93
10/23/2020 6:45:00 PM 17.24 63.032 0.495 7.36 3.21 4.93
10/23/2020 7:00:00 PM 17.17 62.906 0.495 7.34 6.25 5.67
10/23/2020 7:15:00 PM 17.09 62.762 0.495 7.37 3.12 5.52
10/23/2020 7:30:00 PM 17 62.6 0.496 7.34 5.59 5.88
10/23/2020 7:45:00 PM 16.93 62.474 0.496 7.3 2.73 5.24
10/23/2020 8:00:00 PM 16.85 62.33 0.497 7.25 3 5.88
10/23/2020 8:15:00 PM 16.78 62.204 0.496 7.29 6.79 6.07
10/23/2020 8:30:00 PM 16.72 62.096 0.496 7.25 4.81 5.79
10/23/2020 8:45:00 PM 16.66 61.988 0.495 7.25 2.88 5.17
10/23/2020 9:00:00 PM 16.6 61.88 0.496 7.22 5.12 5.94
10/23/2020 9:15:00 PM 16.54 61.772 0.496 7.18 3.59 6.09
10/23/2020 9:30:00 PM 16.5 61.7 0.495 7.22 3.43 5.42
10/23/2020 9:45:00 PM 16.45 61.61 0.495 7.15 3.34 5.44
10/23/2020 10:00:00 PM 16.39 61.502 0.496 7.17 2.94 5.39
10/23/2020 10:15:00 PM 16.34 61.412 0.497 7.19 3.1 5.02
10/23/2020 10:30:00 PM 16.29 61.322 0.497 7.2 3.16 6.01
10/23/2020 10:45:00 PM 16.24 61.232 0.496 7.19 3.38 6.2
10/23/2020 11:00:00 PM 16.19 61.142 0.495 7.18 3.91 5.4
10/23/2020 11:15:00 PM 16.15 61.07 0.494 7.18 3.02 5.63
10/23/2020 11:30:00 PM 16.1 60.98 0.495 7.18 3.74 5.55
10/23/2020 11:45:00 PM 16.06 60.908 0.494 7.2 4.67 5.97
10/24/2020 12:00:00 AM 16.02 60.836 0.493 7.2 6.25 6.15
10/24/2020 12:15:00 AM 15.98 60.764 0.493 7.19 5.23 6.05
10/24/2020 12:30:00 AM 15.95 60.71 0.493 7.18 3.7 6.23
10/24/2020 12:45:00 AM 15.93 60.674 0.493 7.16 3.31 5.94
10/24/2020 1:00:00 AM 15.89 60.602 0.492 7.17 3.61 5.77
10/24/2020 1:15:00 AM 15.85 60.53 0.492 7.18 3.25 6.45
10/24/2020 1:30:00 AM 15.82 60.476 0.491 7.18 3.47 6.07
10/24/2020 1:45:00 AM 15.8 60.44 0.491 7.18 3.07 6.36
10/24/2020 2:00:00 AM 15.76 60.368 0.491 7.17 6.08 6.16
10/24/2020 2:15:00 AM 15.72 60.296 0.491 7.18 3.08 6.47
10/24/2020 2:30:00 AM 15.69 60.242 0.491 7.16 3.39 6.34
10/24/2020 2:45:00 AM 15.67 60.206 0.491 7.15 3.15 5.26
10/24/2020 3:00:00 AM 15.65 60.17 0.492 7.13 3.24 5.92
10/24/2020 3:15:00 AM 15.63 60.134 0.491 7.14 3.87 6.18
10/24/2020 3:30:00 AM 15.6 60.08 0.491 7.14 4.97 6.02
10/24/2020 3:45:00 AM 15.56 60.008 0.485 7.15 3.16 6.44
10/24/2020 4:00:00 AM 15.54 59.972 0.485 7.12 3.4 6.2
10/24/2020 4:15:00 AM 15.53 59.954 0.487 7.14 3.24 6.07
10/24/2020 4:30:00 AM 15.51 59.918 0.485 7.13 4.42 5.79
10/24/2020 4:45:00 AM 15.49 59.882 0.484 7.13 3.56 6.41
10/24/2020 5:00:00 AM 15.48 59.864 0.484 7.14 4.01 6.58
10/24/2020 5:15:00 AM 15.47 59.846 0.484 7.15 3.44 6.64
10/24/2020 5:30:00 AM 15.47 59.846 0.484 7.14 4.31 6.41
10/24/2020 5:45:00 AM 15.46 59.828 0.484 7.14 2.98 6.56
10/24/2020 6:00:00 AM 15.46 59.828 0.483 7.12 3.09 6.35
10/24/2020 6:15:00 AM 15.45 59.81 0.484 7.13 4.88 6.29
10/24/2020 6:30:00 AM 15.45 59.81 0.483 7.11 5.25 6.22
10/24/2020 6:45:00 AM 15.45 59.81 0.484 7.1 5.86 5.84
10/24/2020 7:00:00 AM 15.45 59.81 0.484 7.06 4.03 6.04
10/24/2020 7:15:00 AM 15.44 59.792 0.484 7.1 5.55 6.13
10/24/2020 7:30:00 AM 15.43 59.774 0.485 7.09 4.54 5.96
10/24/2020 7:45:00 AM 15.41 59.738 0.485 7.09 3.62 6.19
10/24/2020 8:00:00 AM 15.38 59.684 0.485 7.07 3.4 5.68
10/24/2020 8:15:00 AM 15.35 59.63 0.486 7.09 4.27 5.87
10/24/2020 8:30:00 AM 15.31 59.558 0.487 7.07 6.7 5.9
10/24/2020 8:45:00 AM 15.27 59.486 0.487 7.06 5.16 6.07
10/24/2020 9:00:00 AM 15.24 59.432 0.488 7.06 4.11 6.06
10/24/2020 9:15:00 AM 15.22 59.396 0.488 7.06 2.65 6.17
10/24/2020 9:30:00 AM 15.19 59.342 0.489 7.07 3.11 6.29
10/24/2020 9:45:00 AM 15.17 59.306 0.49 7.07 2.67 6.32
10/24/2020 10:00:00 AM 15.15 59.27 0.49 7.13 2.61 6.9
10/24/2020 10:15:00 AM 15.13 59.234 0.491 7.1 4.68 6.97
10/24/2020 10:30:00 AM 15.09 59.162 0.492 7.14 2.63 7.22
10/24/2020 10:45:00 AM 15.08 59.144 0.492 7.17 2.63 7.32
10/24/2020 11:00:00 AM 15.1 59.18 0.493 7.16 5.9 7.43
10/24/2020 11:15:00 AM 15.1 59.18 0.493 7.23 2.9 7.86
10/24/2020 11:30:00 AM 15.09 59.162 0.494 7.22 2.95 7.79
10/24/2020 11:45:00 AM 15.07 59.126 0.495 7.23 2.89 7.77
10/24/2020 12:00:00 PM 15.04 59.072 0.495 7.25 3.5 8.38
10/24/2020 12:15:00 PM 15.04 59.072 0.495 7.27 3.02 8.04
10/24/2020 12:30:00 PM 15.04 59.072 0.496 7.28 3.77 8.56
10/24/2020 12:45:00 PM 15.04 59.072 0.496 7.34 4.36 8.46
10/24/2020 1:00:00 PM 15.02 59.036 0.496 7.34 6.46 8.49
10/24/2020 1:15:00 PM 15.03 59.054 0.496 7.34 3.9 8.57
10/24/2020 1:30:00 PM 15.01 59.018 0.497 7.4 2.5 8.55
10/24/2020 1:45:00 PM 14.99 58.982 0.497 7.4 4.76 8.74
10/24/2020 2:00:00 PM 14.97 58.946 0.498 7.36 4.05 8.57
10/24/2020 2:15:00 PM 14.93 58.874 0.498 7.38 4.23 9.02
10/24/2020 2:30:00 PM 14.93 58.874 0.498 7.33 6.04 8.61
10/24/2020 2:45:00 PM 14.94 58.892 0.498 7.39 2.52 8.84
10/24/2020 3:00:00 PM 14.95 58.91 0.498 7.4 4.88 8.79
10/24/2020 3:15:00 PM 14.96 58.928 0.498 7.41 2.52 8.76
10/24/2020 3:30:00 PM 14.96 58.928 0.498 7.44 2.57 8.78
10/24/2020 3:45:00 PM 14.95 58.91 0.499 7.49 2.92 9.16
10/24/2020 4:00:00 PM 14.92 58.856 0.498 7.56 5.06 9.51
10/24/2020 4:15:00 PM 14.85 58.73 0.498 7.6 9.04 9.76
10/24/2020 4:30:00 PM 14.78 58.604 0.498 7.56 5.36 9.64
10/24/2020 4:45:00 PM 14.71 58.478 0.498 7.53 4.04 9.75
10/24/2020 5:00:00 PM 14.64 58.352 0.498 7.56 14.39 9.33
10/24/2020 5:15:00 PM 14.59 58.262 0.498 7.53 3.77 9.31
10/24/2020 5:30:00 PM 14.54 58.172 0.498 7.54 2.81 9.53
10/24/2020 5:45:00 PM 14.47 58.046 0.498 7.52 2.59 9.05
10/24/2020 6:00:00 PM 14.38 57.884 0.499 7.51 3.13 9.24
10/24/2020 6:15:00 PM 14.31 57.758 0.499 7.46 5.45 8.86
10/24/2020 6:30:00 PM 14.23 57.614 0.499 7.46 2.94 8.79
10/24/2020 6:45:00 PM 14.13 57.434 0.499 7.46 3.39 8.78
10/24/2020 7:00:00 PM 14.04 57.272 0.499 7.43 5.05 8.5
10/24/2020 7:15:00 PM 13.92 57.056 0.5 7.4 3 8.55
10/24/2020 7:30:00 PM 13.83 56.894 0.5 7.4 4.62 8.37
10/24/2020 7:45:00 PM 13.72 56.696 0.5 7.39 6.75 8.15
10/24/2020 8:00:00 PM 13.63 56.534 0.501 7.36 3.9 8.21
10/24/2020 8:15:00 PM 13.53 56.354 0.501 7.34 2.66 8.22
10/24/2020 8:30:00 PM 13.46 56.228 0.501 7.32 5.09 8.05
10/24/2020 8:45:00 PM 13.35 56.03 0.501 7.32 3.1 8.2
10/24/2020 9:00:00 PM 13.26 55.868 0.501 7.28 3.07 8.02
10/24/2020 9:15:00 PM 13.18 55.724 0.502 7.28 2.85 8.06
10/24/2020 9:30:00 PM 13.1 55.58 0.502 7.27 3.22 7.87
10/24/2020 9:45:00 PM 13.03 55.454 0.502 7.25 3.55 8.03
10/24/2020 10:00:00 PM 12.95 55.31 0.503 7.26 2.72 8
10/24/2020 10:15:00 PM 12.87 55.166 0.503 7.25 3.93 7.91
10/24/2020 10:30:00 PM 12.79 55.022 0.504 7.23 2.71 7.85
10/24/2020 10:45:00 PM 12.7 54.86 0.504 7.25 2.8 7.99
10/24/2020 11:00:00 PM 12.61 54.698 0.505 7.23 3.14 7.92
10/24/2020 11:15:00 PM 12.54 54.572 0.505 7.23 3.29 8.04
10/24/2020 11:30:00 PM 12.47 54.446 0.506 7.24 4.54 8.04
10/24/2020 11:45:00 PM 12.39 54.302 0.506 7.23 4.58 8.08
10/25/2020 12:00:00 AM 12.3 54.14 0.507 7.22 3.03 8.15
10/25/2020 12:15:00 AM 12.23 54.014 0.507 7.23 2.89 7.96
10/25/2020 12:30:00 AM 12.15 53.87 0.508 7.23 3.3 8.18
10/25/2020 12:45:00 AM 12.11 53.798 0.508 7.21 4.87 8.11
10/25/2020 1:00:00 AM 12.03 53.654 0.509 7.22 2.97 8.19
10/25/2020 1:15:00 AM 11.95 53.51 0.509 7.23 2.95 8.22
10/25/2020 1:30:00 AM 11.89 53.402 0.509 7.24 3.04 8.26
10/25/2020 1:45:00 AM 11.83 53.294 0.51 7.24 5.47 8.25
10/25/2020 2:00:00 AM 11.76 53.168 0.51 7.23 2.89 8.32
10/25/2020 2:15:00 AM 11.69 53.042 0.511 7.24 3.02 8.26
10/25/2020 2:30:00 AM 11.63 52.934 0.511 7.24 4.51 8.36
10/25/2020 2:45:00 AM 11.55 52.79 0.511 7.23 3 8.27
10/25/2020 3:00:00 AM 11.47 52.646 0.511 7.26 3.37 8.3
10/25/2020 3:15:00 AM 11.41 52.538 0.512 7.25 3.13 8.46
10/25/2020 3:30:00 AM 11.33 52.394 0.512 7.27 2.92 8.45
10/25/2020 3:45:00 AM 11.26 52.268 0.512 7.27 3.02 8.57
10/25/2020 4:00:00 AM 11.19 52.142 0.512 7.27 3.02 8.51
10/25/2020 4:15:00 AM 11.12 52.016 0.512 7.24 3.13 8.55
10/25/2020 4:30:00 AM 11.05 51.89 0.512 7.26 4.79 8.48
10/25/2020 4:45:00 AM 11.01 51.818 0.512 7.26 5.35 8.36
10/25/2020 5:00:00 AM 10.92 51.656 0.512 7.26 2.94 8.52
10/25/2020 5:15:00 AM 10.85 51.53 0.512 7.27 3.02 8.51
10/25/2020 5:30:00 AM 10.78 51.404 0.512 7.27 4.73 8.49
10/25/2020 5:45:00 AM 10.72 51.296 0.511 7.27 3.58 8.57
10/25/2020 6:00:00 AM 10.67 51.206 0.511 7.27 3.12 8.64
10/25/2020 6:15:00 AM 10.63 51.134 0.511 7.27 3.18 8.57
10/25/2020 6:30:00 AM 10.58 51.044 0.511 7.27 2.8 8.59
10/25/2020 6:45:00 AM 10.55 50.99 0.511 7.28 3.29 8.61
10/25/2020 7:00:00 AM 10.54 50.972 0.511 7.27 2.88 8.59
10/25/2020 7:15:00 AM 10.51 50.918 0.51 7.23 2.93 8.62
10/25/2020 7:30:00 AM 10.47 50.846 0.51 7.23 3.1 8.65
10/25/2020 7:45:00 AM 10.48 50.864 0.51 7.22 3.02 8.53
10/25/2020 8:00:00 AM 10.41 50.738 0.51 7.25 4.06 8.68
10/25/2020 8:15:00 AM 10.39 50.702 0.51 7.26 4.52 8.8
10/25/2020 8:30:00 AM 10.35 50.63 0.51 7.28 4.66 8.95
10/25/2020 8:45:00 AM 10.37 50.666 0.51 7.28 3.08 8.9
10/25/2020 9:00:00 AM 10.38 50.684 0.51 7.3 3.64 8.88
10/25/2020 9:15:00 AM 10.37 50.666 0.509 7.32 3.77 9.09
10/25/2020 9:30:00 AM 10.35 50.63 0.509 7.37 3.07 9.37
10/25/2020 9:45:00 AM 10.35 50.63 0.509 7.4 3.64 9.67
10/25/2020 10:00:00 AM 10.38 50.684 0.508 7.41 2.9 9.85
10/25/2020 10:15:00 AM 10.39 50.702 0.508 7.45 2.9 10.04
10/25/2020 10:30:00 AM 10.43 50.774 0.508 7.48 3.07 10.26
10/25/2020 10:45:00 AM 10.5 50.9 0.507 7.52 3.44 10.38
10/25/2020 11:00:00 AM 10.57 51.026 0.507 7.54 5.31 10.55
10/25/2020 11:15:00 AM 10.67 51.206 0.506 7.58 4.63 10.7
10/25/2020 11:30:00 AM 10.76 51.368 0.507 7.58 6.11 10.78
10/25/2020 11:45:00 AM 10.82 51.476 0.506 7.62 2.67 10.89
10/25/2020 12:00:00 PM 10.88 51.584 0.506 7.65 3.37 10.97
10/25/2020 12:15:00 PM 11 51.8 0.506 7.64 3.45 11.09
10/25/2020 12:30:00 PM 11.22 52.196 0.506 7.63 3 11.08
10/25/2020 12:45:00 PM 11.38 52.484 0.506 7.58 3.03 9.94
10/25/2020 1:00:00 PM 11.44 52.592 0.506 7.64 2.55 10.65
10/25/2020 1:15:00 PM 11.52 52.736 0.506 7.64 2.89 10.74
10/25/2020 1:30:00 PM 11.58 52.844 0.506 7.77 7.76 11.18
10/25/2020 1:45:00 PM 11.62 52.916 0.506 7.8 3.39 10.92
10/25/2020 2:00:00 PM 11.65 52.97 0.506 7.88 5.1 11.03
10/25/2020 2:15:00 PM 11.66 52.988 0.506 7.94 5.11 11.4
10/25/2020 2:30:00 PM 11.66 52.988 0.506 7.94 2.58 11.54
10/25/2020 2:45:00 PM 11.69 53.042 0.506 7.97 3.19 11.52
10/25/2020 3:00:00 PM 11.73 53.114 0.507 7.89 2.62 11.66
10/25/2020 3:15:00 PM 11.74 53.132 0.507 7.92 2.92 11.83
10/25/2020 3:30:00 PM 11.72 53.096 0.508 7.81 3.12 11.5
10/25/2020 3:45:00 PM 11.7 53.06 0.508 7.78 2.96 11.46
10/25/2020 4:00:00 PM 11.68 53.024 0.509 7.81 2.79 11.13
10/25/2020 4:15:00 PM 11.68 53.024 0.509 7.82 5.25 10.71
10/25/2020 4:30:00 PM 11.64 52.952 0.51 7.79 3.31 10.94
10/25/2020 4:45:00 PM 11.62 52.916 0.511 7.87 5.66 10.74
10/25/2020 5:00:00 PM 11.58 52.844 0.511 7.83 3.11 10.75
10/25/2020 5:15:00 PM 11.54 52.772 0.512 7.87 3.21 10.5
10/25/2020 5:30:00 PM 11.5 52.7 0.512 7.81 2.93 10.2
10/25/2020 5:45:00 PM 11.45 52.61 0.513 7.86 4.53 10.31
10/25/2020 6:00:00 PM 11.41 52.538 0.513 7.67 2.74 10.14
10/25/2020 6:15:00 PM 11.36 52.448 0.514 7.64 5.29 10.08
10/25/2020 6:30:00 PM 11.31 52.358 0.514 7.55 2.57 9.69
10/25/2020 6:45:00 PM 11.25 52.25 0.515 7.49 2.77 9.86
10/25/2020 7:00:00 PM 11.22 52.196 0.515 7.42 2.76 9.55
10/25/2020 7:15:00 PM 11.17 52.106 0.516 7.45 6.44 9.5
10/25/2020 7:30:00 PM 11.12 52.016 0.515 7.4 2.92 9.54
10/25/2020 7:45:00 PM 11.08 51.944 0.515 7.36 2.72 9.23
10/25/2020 8:00:00 PM 11.03 51.854 0.515 7.34 3.1 9.15
10/25/2020 8:15:00 PM 11.01 51.818 0.515 7.3 4.5 9.2
10/25/2020 8:30:00 PM 10.97 51.746 0.515 7.2 2.74 9.12
10/25/2020 8:45:00 PM 10.97 51.746 0.515 7.13 2.87 8.78
10/25/2020 9:00:00 PM 10.96 51.728 0.515 7.04 2.69 8.3
10/25/2020 9:15:00 PM 10.94 51.692 0.515 7 2.92 8.57
10/25/2020 9:30:00 PM 10.86 51.548 0.512 6.98 3 8.8
10/25/2020 9:45:00 PM 10.82 51.476 0.51 6.95 2.83 8.87
10/25/2020 10:00:00 PM 10.81 51.458 0.51 6.93 3.01 8.59
10/25/2020 10:15:00 PM 10.8 51.44 0.51 6.93 3.05 8.62
10/25/2020 10:30:00 PM 10.77 51.386 0.509 6.91 3.18 8.54
10/25/2020 10:45:00 PM 10.75 51.35 0.509 6.89 3.01 8.72
10/25/2020 11:00:00 PM 10.73 51.314 0.509 6.88 3.14 8.47
10/25/2020 11:15:00 PM 10.73 51.314 0.509 6.86 2.98 8.13
10/25/2020 11:30:00 PM 10.71 51.278 0.509 6.87 3.04 8.38
10/25/2020 11:45:00 PM 10.69 51.242 0.509 6.83 2.74 8.42
10/26/2020 12:00:00 AM 10.66 51.188 0.508 6.85 6.54 8.62
10/26/2020 12:15:00 AM 10.65 51.17 0.507 6.84 5.11 8.55
10/26/2020 12:30:00 AM 10.64 51.152 0.507 6.85 2.94 8.5
10/26/2020 12:45:00 AM 10.64 51.152 0.507 6.83 3.02 8.64
10/26/2020 1:00:00 AM 10.63 51.134 0.507 6.85 3.34 8.31
10/26/2020 1:15:00 AM 10.62 51.116 0.507 6.82 2.85 8.46
10/26/2020 1:30:00 AM 10.63 51.134 0.507 6.83 2.78 8.29
10/26/2020 1:45:00 AM 10.62 51.116 0.508 6.82 2.78 8.31
10/26/2020 2:00:00 AM 10.61 51.098 0.508 6.82 2.92 8.49
10/26/2020 2:15:00 AM 10.61 51.098 0.508 6.81 2.94 8.29
10/26/2020 2:30:00 AM 10.6 51.08 0.507 6.8 4.85 8.45
10/26/2020 2:45:00 AM 10.58 51.044 0.508 6.79 4.92 8.45
10/26/2020 3:00:00 AM 10.57 51.026 0.507 6.79 2.76 8.26
10/26/2020 3:15:00 AM 10.57 51.026 0.507 6.79 2.64 8.54
10/26/2020 3:30:00 AM 10.56 51.008 0.507 6.78 4.17 8.44
10/26/2020 3:45:00 AM 10.54 50.972 0.507 6.78 2.74 8.54
10/26/2020 4:00:00 AM 10.53 50.954 0.506 6.75 3.05 8.5
10/26/2020 4:15:00 AM 10.52 50.936 0.506 6.77 4.91 8.46
10/26/2020 4:30:00 AM 10.5 50.9 0.505 6.77 3.11 8.64
10/26/2020 4:45:00 AM 10.48 50.864 0.505 6.77 3.81 8.62
10/26/2020 5:00:00 AM 10.48 50.864 0.505 6.78 4.92 8.43
10/26/2020 5:15:00 AM 10.48 50.864 0.504 6.75 2.88 8.11
10/26/2020 5:30:00 AM 10.48 50.864 0.504 6.75 3.19 8.03
10/26/2020 5:45:00 AM 10.45 50.81 0.503 6.74 3.38 8.27
10/26/2020 6:00:00 AM 10.43 50.774 0.503 6.77 2.94 8.56
10/26/2020 6:15:00 AM 10.43 50.774 0.503 6.75 2.86 8.61
10/26/2020 6:30:00 AM 10.41 50.738 0.503 6.78 2.87 8.55
10/26/2020 6:45:00 AM 10.4 50.72 0.504 6.79 4.54 8.72
10/26/2020 7:00:00 AM 10.4 50.72 0.502 6.79 2.71 8.51
10/26/2020 7:15:00 AM 10.38 50.684 0.502 6.8 2.96 8.71
10/26/2020 7:30:00 AM 10.38 50.684 0.502 6.78 4.71 8.64
10/26/2020 7:45:00 AM 10.36 50.648 0.502 6.79 3.84 8.82
10/26/2020 8:00:00 AM 10.37 50.666 0.502 6.79 3.57 8.59
10/26/2020 8:15:00 AM 10.34 50.612 0.502 6.82 3.39 8.91
10/26/2020 8:30:00 AM 10.34 50.612 0.502 6.8 3.37 8.79
10/26/2020 8:45:00 AM 10.33 50.594 0.501 6.79 3.32 8.9
10/26/2020 9:00:00 AM 10.33 50.594 0.501 6.83 2.9 8.98
10/26/2020 9:15:00 AM 10.34 50.612 0.501 6.82 2.81 8.99
10/26/2020 9:30:00 AM 10.36 50.648 0.501 6.84 2.83 9.05
10/26/2020 9:45:00 AM 10.38 50.684 0.501 6.82 2.89 9.19
10/26/2020 10:00:00 AM 10.4 50.72 0.502 6.84 3.05 9.23
10/26/2020 10:15:00 AM 10.44 50.792 0.502 6.87 2.76 9.41
10/26/2020 10:30:00 AM 10.47 50.846 0.502 7.33 3.12 9.69
10/26/2020 10:45:00 AM 10.49 50.882 0.502 7.44 2.86 9.85
10/26/2020 11:00:00 AM 10.54 50.972 0.502 7.44 2.76 9.68
10/26/2020 11:15:00 AM 10.58 51.044 0.502 7.51 2.75 10.04
10/26/2020 11:30:00 AM 10.61 51.098 0.503 7.53 2.72 10.25
10/26/2020 11:45:00 AM 10.63 51.134 0.503 7.56 3.31 10.34
10/26/2020 12:00:00 PM 10.66 51.188 0.503 7.61 2.78 10.63
10/26/2020 12:15:00 PM 10.71 51.278 0.503 7.64 2.71 10.7
10/26/2020 12:30:00 PM 10.76 51.368 0.504 7.66 4.08 10.97
10/26/2020 12:45:00 PM 10.8 51.44 0.504 7.65 2.8 10.91
10/26/2020 1:00:00 PM 10.85 51.53 0.504 7.66 2.98 10.91
10/26/2020 1:15:00 PM 10.9 51.62 0.504 7.67 3.95 10.94
10/26/2020 1:30:00 PM 10.94 51.692 0.505 7.67 2.62 10.78
10/26/2020 1:45:00 PM 11 51.8 0.505 7.64 2.78 10.77
10/26/2020 2:00:00 PM 11.08 51.944 0.505 7.69 4.14 10.63
10/26/2020 2:15:00 PM 11.18 52.124 0.505 7.77 4.68 11.3
10/26/2020 2:30:00 PM 11.24 52.232 0.505 7.69 3.08 10.91
10/26/2020 2:45:00 PM 11.29 52.322 0.506 7.68 2.76 10.83
10/26/2020 3:00:00 PM 11.32 52.376 0.506 7.66 3.16 10.12
10/26/2020 3:15:00 PM 11.37 52.466 0.506 7.69 4.7 9.54
10/26/2020 3:30:00 PM 11.42 52.556 0.505 7.7 2.81 10.7
10/26/2020 3:45:00 PM 11.47 52.646 0.506 7.78 2.7 10.51
10/26/2020 4:00:00 PM 11.5 52.7 0.506 7.74 2.68 10.35
10/26/2020 4:15:00 PM 11.54 52.772 0.505 7.76 2.69 10.73
10/26/2020 4:30:00 PM 11.56 52.808 0.505 7.71 2.67 10.36
10/26/2020 4:45:00 PM 11.56 52.808 0.506 7.73 2.68 9.93
10/26/2020 5:00:00 PM 11.58 52.844 0.505 7.81 4.38 10.58
10/26/2020 5:15:00 PM 11.58 52.844 0.505 7.73 2.71 9.99
10/26/2020 5:30:00 PM 11.57 52.826 0.505 7.73 2.85 10.26
10/26/2020 5:45:00 PM 11.56 52.808 0.505 7.67 3.5 9.89
10/26/2020 6:00:00 PM 11.55 52.79 0.505 7.56 3.02 9.43
10/26/2020 6:15:00 PM 11.54 52.772 0.506 7.58 2.9 8.42
10/26/2020 6:30:00 PM 11.53 52.754 0.505 7.6 2.89 9.1
10/26/2020 6:45:00 PM 11.53 52.754 0.505 7.55 4.75 9.07
10/26/2020 7:00:00 PM 11.52 52.736 0.505 7.47 3.01 8.98
10/26/2020 7:15:00 PM 11.52 52.736 0.505 7.5 2.81 9.02
10/26/2020 7:30:00 PM 11.51 52.718 0.504 7.53 2.75 9.21
10/26/2020 7:45:00 PM 11.5 52.7 0.504 7.47 4.69 8.89
10/26/2020 8:00:00 PM 11.5 52.7 0.505 7.47 4.19 8.9
10/26/2020 8:15:00 PM 11.49 52.682 0.504 7.51 2.85 9.29
10/26/2020 8:30:00 PM 11.48 52.664 0.504 7.49 2.95 9.18
10/26/2020 8:45:00 PM 11.47 52.646 0.504 7.5 3.29 9.2
10/26/2020 9:00:00 PM 11.47 52.646 0.503 7.48 3.28 9.16
10/26/2020 9:15:00 PM 11.47 52.646 0.503 7.48 2.95 9.27
10/26/2020 9:30:00 PM 11.47 52.646 0.503 7.47 4.11 9.21
10/26/2020 9:45:00 PM 11.48 52.664 0.503 7.41 3.23 9.2
10/26/2020 10:00:00 PM 11.48 52.664 0.503 7.4 2.99 9.24
10/26/2020 10:15:00 PM 11.49 52.682 0.503 7.38 2.73 9.25
10/26/2020 10:30:00 PM 11.49 52.682 0.502 7.37 2.87 9.13
10/26/2020 10:45:00 PM 11.5 52.7 0.503 7.37 2.82 9.16
10/26/2020 11:00:00 PM 11.51 52.718 0.502 7.36 4.25 9.06
10/26/2020 11:15:00 PM 11.53 52.754 0.503 7.34 4.29 8.86
10/26/2020 11:30:00 PM 11.54 52.772 0.503 7.34 3.68 8.87
10/26/2020 11:45:00 PM 11.55 52.79 0.502 7.35 2.73 8.86
10/27/2020 12:00:00 AM 11.56 52.808 0.502 7.33 3.13 8.77
10/27/2020 12:15:00 AM 11.56 52.808 0.502 7.35 2.95 8.65
10/27/2020 12:30:00 AM 11.56 52.808 0.502 7.34 3 8.82
10/27/2020 12:45:00 AM 11.56 52.808 0.503 7.37 2.83 8.87
10/27/2020 1:00:00 AM 11.55 52.79 0.503 7.39 2.73 8.9
10/27/2020 1:15:00 AM 11.55 52.79 0.503 7.42 2.92 9.02
10/27/2020 1:30:00 AM 11.53 52.754 0.503 7.42 2.74 9.04
10/27/2020 1:45:00 AM 11.52 52.736 0.504 7.41 3.03 9.06
10/27/2020 2:00:00 AM 11.52 52.736 0.504 7.4 2.84 9.02
10/27/2020 2:15:00 AM 11.51 52.718 0.504 7.4 2.96 8.97
10/27/2020 2:30:00 AM 11.5 52.7 0.505 7.39 2.77 8.97
10/27/2020 2:45:00 AM 11.49 52.682 0.505 7.37 2.72 8.85
10/27/2020 3:00:00 AM 11.49 52.682 0.505 7.38 3.61 8.87
10/27/2020 3:15:00 AM 11.48 52.664 0.506 7.38 2.83 8.93
10/27/2020 3:30:00 AM 11.48 52.664 0.506 7.36 2.94 8.87
10/27/2020 3:45:00 AM 11.47 52.646 0.506 7.37 3 8.88
10/27/2020 4:00:00 AM 11.46 52.628 0.506 7.37 3.02 8.91
10/27/2020 4:15:00 AM 11.45 52.61 0.506 7.35 4.82 8.81
10/27/2020 4:30:00 AM 11.42 52.556 0.506 7.33 4.14 8.77
10/27/2020 4:45:00 AM 11.4 52.52 0.506 7.35 2.96 8.94
10/27/2020 5:00:00 AM 11.39 52.502 0.506 7.34 3.91 8.8
10/27/2020 5:15:00 AM 11.38 52.484 0.506 7.34 2.89 8.78
10/27/2020 5:30:00 AM 11.36 52.448 0.506 7.32 4.13 8.71
10/27/2020 5:45:00 AM 11.35 52.43 0.505 7.32 2.86 8.73
10/27/2020 6:00:00 AM 11.33 52.394 0.505 7.33 3.14 8.85
10/27/2020 6:15:00 AM 11.31 52.358 0.505 7.33 2.78 8.8
10/27/2020 6:30:00 AM 11.3 52.34 0.505 7.3 2.85 8.86
10/27/2020 6:45:00 AM 11.28 52.304 0.505 7.26 2.88 8.84
10/27/2020 7:00:00 AM 11.27 52.286 0.505 7.3 3.02 8.8
10/27/2020 7:15:00 AM 11.26 52.268 0.505 7.31 2.78 8.87
10/27/2020 7:30:00 AM 11.25 52.25 0.505 7.3 3.1 8.77
10/27/2020 7:45:00 AM 11.24 52.232 0.506 7.31 3.44 8.8
10/27/2020 8:00:00 AM 11.23 52.214 0.506 7.3 3 8.67
10/27/2020 8:15:00 AM 11.22 52.196 0.506 7.31 3.16 8.84
10/27/2020 8:30:00 AM 11.21 52.178 0.507 7.31 2.97 8.76
10/27/2020 8:45:00 AM 11.21 52.178 0.507 7.31 3.04 8.97
10/27/2020 9:00:00 AM 11.22 52.196 0.508 7.27 2.85 8.82
10/27/2020 9:15:00 AM 11.21 52.178 0.509 7.27 2.82 8.76
10/27/2020 9:30:00 AM 11.22 52.196 0.509 7.32 2.94 9.06
10/27/2020 9:45:00 AM 11.24 52.232 0.51 7.34 5.39 9.18
10/27/2020 10:00:00 AM 11.27 52.286 0.51 7.35 5.19 9.39
10/27/2020 10:15:00 AM 11.29 52.322 0.511 7.34 2.78 9.67
10/27/2020 10:30:00 AM 11.33 52.394 0.511 7.43 2.75 9.91
10/27/2020 10:45:00 AM 11.38 52.484 0.511 7.37 3.28 9.98
10/27/2020 11:00:00 AM 11.41 52.538 0.511 7.47 2.73 10.23
10/27/2020 11:15:00 AM 11.45 52.61 0.512 7.48 4.15 10.25
10/27/2020 11:30:00 AM 11.49 52.682 0.512 7.46 2.62 10.4
10/27/2020 11:45:00 AM 11.57 52.826 0.512 7.49 2.78 10.39
10/27/2020 12:00:00 PM 11.66 52.988 0.512 7.57 4.96 10.89
10/27/2020 12:15:00 PM 11.71 53.078 0.512 7.47 2.66 10.9
10/27/2020 12:30:00 PM 11.77 53.186 0.512 7.37 2.88 11.12
10/27/2020 12:45:00 PM 11.85 53.33 0.512 7.48 3.53 11.33
10/27/2020 1:00:00 PM 11.9 53.42 0.512 7.39 2.89 11.23
10/27/2020 1:15:00 PM 11.95 53.51 0.512 7.29 3.27 10.96
10/27/2020 1:30:00 PM 11.98 53.564 0.512 7.35 4.7 10.49
10/27/2020 1:45:00 PM 12.03 53.654 0.511 7.47 2.68 11.74
10/27/2020 2:00:00 PM 12.07 53.726 0.511 7.46 2.61 11.92
10/27/2020 2:15:00 PM 12.13 53.834 0.511 7.41 2.61 11.5
10/27/2020 2:30:00 PM 12.16 53.888 0.512 7.46 3.93 11.15
10/27/2020 2:45:00 PM 12.22 53.996 0.51 7.49 2.96 11.67
10/27/2020 3:00:00 PM 12.25 54.05 0.51 7.4 2.76 11.24
10/27/2020 3:15:00 PM 12.28 54.104 0.51 7.45 2.62 11.64
10/27/2020 3:30:00 PM 12.28 54.104 0.51 7.39 2.69 11.29
10/27/2020 3:45:00 PM 12.3 54.14 0.51 7.42 2.74 11.28
10/27/2020 4:00:00 PM 12.29 54.122 0.51 7.48 4.61 11.03
10/27/2020 4:15:00 PM 12.3 54.14 0.509 7.43 3.53 11.36
10/27/2020 4:30:00 PM 12.28 54.104 0.51 7.48 2.67 11.14
10/27/2020 4:45:00 PM 12.27 54.086 0.51 7.39 2.99 10.65
10/27/2020 5:00:00 PM 12.25 54.05 0.51 7.4 3.78 10.65
10/27/2020 5:15:00 PM 12.23 54.014 0.51 7.34 2.64 10.58
10/27/2020 5:30:00 PM 12.21 53.978 0.511 7.32 2.72 10.22
10/27/2020 5:45:00 PM 12.2 53.96 0.511 7.3 2.64 10.33
10/27/2020 6:00:00 PM 12.17 53.906 0.511 7.29 3.4 10.23
10/27/2020 6:15:00 PM 12.15 53.87 0.511 7.25 6.42 9.74
10/27/2020 6:30:00 PM 12.13 53.834 0.512 7.19 6.96 9.46
10/27/2020 6:45:00 PM 12.11 53.798 0.512 7.13 5.8 9.41
10/27/2020 7:00:00 PM 12.08 53.744 0.512 7.1 3.06 9.18
10/27/2020 7:15:00 PM 12.06 53.708 0.512 7.11 3.03 9.37
10/27/2020 7:30:00 PM 12.05 53.69 0.513 7.04 4.63 8.97
10/27/2020 7:45:00 PM 12.02 53.636 0.513 7.04 2.71 9.13
10/27/2020 8:00:00 PM 12.01 53.618 0.513 7.03 3.8 9.03
10/27/2020 8:15:00 PM 11.99 53.582 0.513 6.99 4.22 8.78
10/27/2020 8:30:00 PM 11.98 53.564 0.513 6.97 7.66 8.54
10/27/2020 8:45:00 PM 11.96 53.528 0.513 6.99 3.61 8.9
10/27/2020 9:00:00 PM 11.94 53.492 0.513 6.99 3.83 8.75
10/27/2020 9:15:00 PM 11.92 53.456 0.514 6.98 4 8.71
10/27/2020 9:30:00 PM 11.91 53.438 0.515 6.92 5.66 8.35
10/27/2020 9:45:00 PM 11.9 53.42 0.514 6.93 3.31 8.57
10/27/2020 10:00:00 PM 11.89 53.402 0.514 6.96 3.11 8.55
10/27/2020 10:15:00 PM 11.87 53.366 0.514 6.96 3.59 8.56
10/27/2020 10:30:00 PM 11.86 53.348 0.514 6.98 3.06 8.6
10/27/2020 10:45:00 PM 11.85 53.33 0.514 6.98 3.51 8.55
10/27/2020 11:00:00 PM 11.83 53.294 0.513 7.01 4.88 8.52
10/27/2020 11:15:00 PM 11.8 53.24 0.511 7.08 3.41 8.69
10/27/2020 11:30:00 PM 11.79 53.222 0.511 7.15 2.82 8.75
10/27/2020 11:45:00 PM 11.79 53.222 0.51 7.19 4.31 8.64
10/28/2020 12:00:00 AM 11.77 53.186 0.51 7.27 2.78 8.58
10/28/2020 12:15:00 AM 11.77 53.186 0.509 7.31 4.27 8.45
10/28/2020 12:30:00 AM 11.76 53.168 0.508 7.4 2.84 8.64
10/28/2020 12:45:00 AM 11.74 53.132 0.508 7.41 2.87 8.67
10/28/2020 1:00:00 AM 11.73 53.114 0.507 7.41 2.77 8.65
10/28/2020 1:15:00 AM 11.73 53.114 0.507 7.41 2.91 8.46
10/28/2020 1:30:00 AM 11.71 53.078 0.505 7.39 2.74 8.52
10/28/2020 1:45:00 AM 11.69 53.042 0.504 7.38 3.44 8.72
10/28/2020 2:00:00 AM 11.68 53.024 0.503 7.34 5.41 8.56
10/28/2020 2:15:00 AM 11.66 52.988 0.501 7.35 3.4 8.57
10/28/2020 2:30:00 AM 11.67 53.006 0.501 7.32 5.82 8.5
10/28/2020 2:45:00 AM 11.65 52.97 0.5 7.34 5.02 8.56
10/28/2020 3:00:00 AM 11.65 52.97 0.499 7.34 2.99 8.55
10/28/2020 3:15:00 AM 11.64 52.952 0.499 7.33 5.05 8.53
10/28/2020 3:30:00 AM 11.65 52.97 0.498 7.28 3.45 8.31
10/28/2020 3:45:00 AM 11.62 52.916 0.495 7.31 3.21 8.43
10/28/2020 4:00:00 AM 11.61 52.898 0.494 7.32 3.32 8.45
10/28/2020 4:15:00 AM 11.6 52.88 0.493 7.33 3.06 8.54
10/28/2020 4:30:00 AM 11.59 52.862 0.493 7.31 5.22 8.57
10/28/2020 4:45:00 AM 11.6 52.88 0.493 7.28 3.27 8.25
10/28/2020 5:00:00 AM 11.61 52.898 0.493 7.23 3.95 8.22
10/28/2020 5:15:00 AM 11.58 52.844 0.491 7.3 4.76 8.38
10/28/2020 5:30:00 AM 11.58 52.844 0.491 7.3 8.84 8.59
10/28/2020 5:45:00 AM 11.57 52.826 0.49 7.31 4.52 8.44
10/28/2020 6:00:00 AM 11.57 52.826 0.49 7.31 3.56 8.45
10/28/2020 6:15:00 AM 11.57 52.826 0.489 7.3 3.16 8.57
10/28/2020 6:30:00 AM 11.57 52.826 0.489 7.31 3.38 8.56
10/28/2020 6:45:00 AM 11.57 52.826 0.489 7.31 3.68 8.62
10/28/2020 7:00:00 AM 11.57 52.826 0.489 7.32 3.4 8.64
10/28/2020 7:15:00 AM 11.56 52.808 0.489 7.31 3.3 8.59
10/28/2020 7:30:00 AM 11.56 52.808 0.489 7.31 3.92 8.59
10/28/2020 7:45:00 AM 11.57 52.826 0.489 7.29 4.9 8.28
10/28/2020 8:00:00 AM 11.56 52.808 0.489 7.3 4.71 8.59
10/28/2020 8:15:00 AM 11.57 52.826 0.49 7.29 3.69 8.45
10/28/2020 8:30:00 AM 11.58 52.844 0.491 7.28 4.96 8.36
10/28/2020 8:45:00 AM 11.58 52.844 0.49 7.31 4.25 8.32
10/28/2020 9:00:00 AM 11.59 52.862 0.49 7.3 7.88 8.57
10/28/2020 9:15:00 AM 11.6 52.88 0.49 7.3 3.85 8.64
10/28/2020 9:30:00 AM 11.61 52.898 0.49 7.3 6.87 8.59
10/28/2020 9:45:00 AM 11.62 52.916 0.49 7.31 3.11 8.54
10/28/2020 10:00:00 AM 11.63 52.934 0.49 7.32 2.75 8.77
10/28/2020 10:15:00 AM 11.65 52.97 0.49 7.33 2.9 8.63
10/28/2020 10:30:00 AM 11.65 52.97 0.49 7.34 3.39 8.79
10/28/2020 10:45:00 AM 11.66 52.988 0.49 7.35 2.93 8.73
10/28/2020 11:00:00 AM 11.68 53.024 0.49 7.3 3.51 8.8
10/28/2020 11:15:00 AM 11.68 53.024 0.49 7.35 4.65 8.79
10/28/2020 11:30:00 AM 11.69 53.042 0.491 7.37 4.14 9.01
10/28/2020 11:45:00 AM 11.7 53.06 0.49 7.42 3.51 9.2
10/28/2020 12:00:00 PM 11.72 53.096 0.49 7.37 17.17 9.05
10/28/2020 12:15:00 PM 11.74 53.132 0.49 7.4 2.78 9.17
10/28/2020 12:30:00 PM 11.75 53.15 0.49 7.44 2.96 9.29
10/28/2020 12:45:00 PM 11.76 53.168 0.49 7.45 3.02 9.33
10/28/2020 1:00:00 PM 11.77 53.186 0.49 7.49 2.96 9.3
10/28/2020 1:15:00 PM 11.78 53.204 0.489 7.5 2.86 9.15
10/28/2020 1:30:00 PM 11.79 53.222 0.489 7.48 3.54 9.21
10/28/2020 1:45:00 PM 11.8 53.24 0.488 7.47 3.01 9.54
10/28/2020 2:00:00 PM 11.81 53.258 0.486 7.54 3.21 9.49
10/28/2020 2:15:00 PM 11.81 53.258 0.486 7.54 2.73 9.42
10/28/2020 2:30:00 PM 11.82 53.276 0.484 7.55 3.51 9.35
10/28/2020 2:45:00 PM 11.83 53.294 0.483 7.6 2.95 9.39
10/28/2020 3:00:00 PM 11.84 53.312 0.482 7.6 3.45 9.58
10/28/2020 3:15:00 PM 11.85 53.33 0.481 7.53 4.02 9.64
10/28/2020 3:30:00 PM 11.86 53.348 0.481 7.36 3.07 9.5
10/28/2020 3:45:00 PM 11.88 53.384 0.479 7.39 5.35 9.28
10/28/2020 4:00:00 PM 11.88 53.384 0.48 7.39 4.62 9.36
10/28/2020 4:15:00 PM 11.89 53.402 0.478 7.4 5.23 9.34
10/28/2020 4:30:00 PM 11.9 53.42 0.477 7.41 3.26 9.52
10/28/2020 4:45:00 PM 11.9 53.42 0.476 7.57 2.98 9
10/28/2020 5:00:00 PM 11.9 53.42 0.476 7.56 2.93 9.04
10/28/2020 5:15:00 PM 11.9 53.42 0.477 7.59 3.96 9.04
10/28/2020 5:30:00 PM 11.89 53.402 0.475 7.6 2.78 8.93
10/28/2020 5:45:00 PM 11.89 53.402 0.475 7.57 5.13 8.87
10/28/2020 6:00:00 PM 11.89 53.402 0.475 7.55 2.95 9.24
10/28/2020 6:15:00 PM 11.89 53.402 0.475 7.52 2.9 8.2
10/28/2020 6:30:00 PM 11.89 53.402 0.475 7.5 3.33 9.08
10/28/2020 6:45:00 PM 11.89 53.402 0.476 7.49 4.35 8.63
10/28/2020 7:00:00 PM 11.88 53.384 0.475 7.53 3.12 8.83
10/28/2020 7:15:00 PM 11.88 53.384 0.476 7.53 2.9 9.02
10/28/2020 7:30:00 PM 11.87 53.366 0.476 7.52 3.11 8.72
10/28/2020 7:45:00 PM 11.88 53.384 0.476 7.52 3.77 8.71
10/28/2020 8:00:00 PM 11.88 53.384 0.477 7.49 3.9 8.52
10/28/2020 8:15:00 PM 11.88 53.384 0.478 7.49 3.94 8.61
10/28/2020 8:30:00 PM 11.88 53.384 0.479 7.5 4.77 8.78
10/28/2020 8:45:00 PM 11.87 53.366 0.478 7.5 4.18 8.93
10/28/2020 9:00:00 PM 11.88 53.384 0.479 7.5 3.13 8.54
10/28/2020 9:15:00 PM 11.87 53.366 0.48 7.53 4.07 8.83
10/28/2020 9:30:00 PM 11.88 53.384 0.481 7.52 3.34 8.95
10/28/2020 9:45:00 PM 11.88 53.384 0.482 7.53 3.95 8.76
10/28/2020 10:00:00 PM 11.88 53.384 0.483 7.35 4.43 8.94
10/28/2020 10:15:00 PM 11.88 53.384 0.485 7.48 4.59 9.01
10/28/2020 10:30:00 PM 11.88 53.384 0.486 7.51 3.53 8.84
10/28/2020 10:45:00 PM 11.88 53.384 0.486 7.53 3.33 8.92
10/28/2020 11:00:00 PM 11.89 53.402 0.487 7.51 5.06 8.85
10/28/2020 11:15:00 PM 11.88 53.384 0.488 7.52 3.1 8.89
10/28/2020 11:30:00 PM 11.88 53.384 0.488 7.5 4.93 8.91
10/28/2020 11:45:00 PM 11.88 53.384 0.489 7.51 4.6 8.89
10/29/2020 12:00:00 AM 11.88 53.384 0.489 7.48 3.49 8.7
10/29/2020 12:15:00 AM 11.88 53.384 0.489 7.47 3.76 8.73
10/29/2020 12:30:00 AM 11.88 53.384 0.489 7.47 4.03 8.55
10/29/2020 12:45:00 AM 11.88 53.384 0.489 7.45 4.16 8.8
10/29/2020 1:00:00 AM 11.87 53.366 0.489 7.47 3.76 8.15
10/29/2020 1:15:00 AM 11.87 53.366 0.489 7.48 3.16 8.67
10/29/2020 1:30:00 AM 11.87 53.366 0.49 7.43 3.29 8.79
10/29/2020 1:45:00 AM 11.87 53.366 0.49 7.42 3.13 8.19
10/29/2020 2:00:00 AM 11.87 53.366 0.49 7.38 4.28 7.93
10/29/2020 2:15:00 AM 11.85 53.33 0.49 7.42 3.73 8.2
10/29/2020 2:30:00 AM 11.85 53.33 0.49 7.46 2.96 8.19
10/29/2020 2:45:00 AM 11.84 53.312 0.489 7.46 2.99 8.67
10/29/2020 3:00:00 AM 11.84 53.312 0.49 7.45 4.43 8.5
10/29/2020 3:15:00 AM 11.84 53.312 0.49 7.44 2.94 8.52
10/29/2020 3:30:00 AM 11.82 53.276 0.489 7.47 3.09 8.62
10/29/2020 3:45:00 AM 11.82 53.276 0.489 7.46 3.59 8.74
10/29/2020 4:00:00 AM 11.81 53.258 0.489 7.48 4.82 8.78
10/29/2020 4:15:00 AM 11.81 53.258 0.489 7.44 3.77 8.56
10/29/2020 4:30:00 AM 11.81 53.258 0.489 7.46 3.1 8.62
10/29/2020 4:45:00 AM 11.8 53.24 0.489 7.44 3.64 8.49
10/29/2020 5:00:00 AM 11.79 53.222 0.488 7.42 3.15 8.53
10/29/2020 5:15:00 AM 11.77 53.186 0.487 7.48 3.64 8.57
10/29/2020 5:30:00 AM 11.77 53.186 0.486 7.43 5.09 8.55
10/29/2020 5:45:00 AM 11.75 53.15 0.484 7.45 5.08 8.71
10/29/2020 6:00:00 AM 11.75 53.15 0.484 7.41 5.5 8.58
10/29/2020 6:15:00 AM 11.73 53.114 0.483 7.43 4.05 8.68
10/29/2020 6:30:00 AM 11.72 53.096 0.482 7.42 5.2 8.63
10/29/2020 6:45:00 AM 11.71 53.078 0.481 7.41 5.39 8.42
10/29/2020 7:00:00 AM 11.69 53.042 0.479 7.44 6.42 8.62
10/29/2020 7:15:00 AM 11.67 53.006 0.478 7.45 5.49 8.76
10/29/2020 7:30:00 AM 11.66 52.988 0.477 7.45 7.64 8.74
10/29/2020 7:45:00 AM 11.65 52.97 0.476 7.42 4.41 8.71
10/29/2020 8:00:00 AM 11.61 52.898 0.474 7.46 5.87 8.91
10/29/2020 8:15:00 AM 11.6 52.88 0.474 7.45 5.54 8.91
10/29/2020 8:30:00 AM 11.59 52.862 0.472 7.44 6.62 8.88
10/29/2020 8:45:00 AM 11.56 52.808 0.468 7.5 3.2 8.98
10/29/2020 9:00:00 AM 11.56 52.808 0.466 7.45 3.98 8.93
10/29/2020 9:15:00 AM 11.56 52.808 0.463 7.43 3.45 8.63
10/29/2020 9:30:00 AM 11.54 52.772 0.455 7.42 3.99 8.88
10/29/2020 9:45:00 AM 11.54 52.772 0.451 7.39 4.6 8.45
10/29/2020 10:00:00 AM 11.53 52.754 0.448 7.4 6.31 8.79
10/29/2020 10:15:00 AM 11.48 52.664 0.444 7.45 5.39 9.31
10/29/2020 10:30:00 AM 11.47 52.646 0.443 7.43 6.43 9.32
10/29/2020 10:45:00 AM 11.48 52.664 0.443 7.42 10.53 9.23
10/29/2020 11:00:00 AM 11.46 52.628 0.442 7.47 6.37 9.54
10/29/2020 11:15:00 AM 11.44 52.592 0.442 7.47 8.45 9.56
10/29/2020 11:30:00 AM 11.43 52.574 0.442 7.46 8.5 9.55
10/29/2020 11:45:00 AM 11.42 52.556 0.438 7.45 10.63 9.53
10/29/2020 12:00:00 PM 11.41 52.538 0.433 7.48 13.84 9.7
10/29/2020 12:15:00 PM 11.4 52.52 0.425 7.46 13.99 9.7
10/29/2020 12:30:00 PM 11.41 52.538 0.429 7.46 28.05 9.7
10/29/2020 12:45:00 PM 11.45 52.61 0.432 7.47 21.79 9.72
10/29/2020 1:00:00 PM 11.53 52.754 0.431 7.26 39.11 9.57
10/29/2020 1:15:00 PM 11.55 52.79 0.416 7.27 26.71 9.57
10/29/2020 1:30:00 PM 11.57 52.826 0.402 7.3 35.39 9.59
10/29/2020 1:45:00 PM 11.6 52.88 0.393 7.3 36.75 9.52
10/29/2020 2:00:00 PM 11.64 52.952 0.395 7.28 24.11 9.55
10/29/2020 2:15:00 PM 11.69 53.042 0.402 7.27 34.41 9.56
10/29/2020 2:30:00 PM 11.76 53.168 0.409 7.27 33.58 9.37
10/29/2020 2:45:00 PM 11.88 53.384 0.419 7.43 229.5 9.59
10/29/2020 3:00:00 PM 12.02 53.636 0.425 7.42 153.06 9.53
10/29/2020 3:15:00 PM 12.17 53.906 0.427 7.41 112.66 9.48
10/29/2020 3:30:00 PM 12.27 54.086 0.419 7.41 86.43 9.41
10/29/2020 3:45:00 PM 12.31 54.158 0.402 7.41 93.68 9.38
10/29/2020 4:00:00 PM 12.29 54.122 0.38 7.39 78.14 9.35
10/29/2020 4:15:00 PM 12.25 54.05 0.357 7.22 70.69 9.34
10/29/2020 4:30:00 PM 12.21 53.978 0.336 7.21 74 9.33
10/29/2020 4:45:00 PM 12.18 53.924 0.32 7.14 97.6 9.32
10/29/2020 5:00:00 PM 12.17 53.906 0.31 7.13 74 9.3
10/29/2020 5:15:00 PM 12.15 53.87 0.304 7.12 71.61 9.3
10/29/2020 5:30:00 PM 12.12 53.816 0.301 7.13 67.31 9.3
10/29/2020 5:45:00 PM 12.1 53.78 0.297 7.16 76.67 9.29
10/29/2020 6:00:00 PM 12.06 53.708 0.292 7.22 77.86 9.31
10/29/2020 6:15:00 PM 12.02 53.636 0.286 7.22 72.15 9.33
10/29/2020 6:30:00 PM 11.97 53.546 0.281 7.21 61.54 9.37
10/29/2020 6:45:00 PM 11.92 53.456 0.277 7.22 62.6 9.4
10/29/2020 7:00:00 PM 11.88 53.384 0.277 7.22 53.75 9.41
10/29/2020 7:15:00 PM 11.87 53.366 0.279 7.22 62.87 9.4
10/29/2020 7:30:00 PM 11.86 53.348 0.281 7.24 57.63 9.39
10/29/2020 7:45:00 PM 11.85 53.33 0.281 7.26 68.64 9.4
10/29/2020 8:00:00 PM 11.83 53.294 0.279 7.26 54.36 9.43
10/29/2020 8:15:00 PM 11.8 53.24 0.277 7.26 53.48 9.46
10/29/2020 8:30:00 PM 11.77 53.186 0.275 7.26 50.13 9.48
10/29/2020 8:45:00 PM 11.75 53.15 0.276 7.25 56.51 9.49
10/29/2020 9:00:00 PM 11.74 53.132 0.278 7.25 65.39 9.49
10/29/2020 9:15:00 PM 11.75 53.15 0.283 7.25 51.17 9.48
10/29/2020 9:30:00 PM 11.76 53.168 0.288 7.25 53.54 9.47
10/29/2020 9:45:00 PM 11.77 53.186 0.292 7.25 48.57 9.47
10/29/2020 10:00:00 PM 11.77 53.186 0.294 7.26 66.99 9.47
10/29/2020 10:15:00 PM 11.76 53.168 0.295 7.27 44.64 9.49
10/29/2020 10:30:00 PM 11.75 53.15 0.296 7.28 44.26 9.48
10/29/2020 10:45:00 PM 11.74 53.132 0.297 7.28 43.21 9.49
10/29/2020 11:00:00 PM 11.73 53.114 0.299 7.28 40.14 9.48
10/29/2020 11:15:00 PM 11.73 53.114 0.3 7.28 39.38 9.47
10/29/2020 11:30:00 PM 11.73 53.114 0.302 7.28 37.07 9.47
10/29/2020 11:45:00 PM 11.73 53.114 0.303 7.27 34.4 9.45
10/30/2020 12:00:00 AM 11.73 53.114 0.304 7.29 35.84 9.45
10/30/2020 12:15:00 AM 11.72 53.096 0.304 7.27 35.14 9.46
10/30/2020 12:30:00 AM 11.71 53.078 0.304 7.28 34.68 9.47
10/30/2020 12:45:00 AM 11.69 53.042 0.303 7.27 39.99 9.47
10/30/2020 1:00:00 AM 11.66 52.988 0.303 7.28 178.14 9.49
10/30/2020 1:15:00 AM 11.63 52.934 0.302 7.28 39.2 9.5
10/30/2020 1:30:00 AM 11.6 52.88 0.303 7.28 28.79 9.49
10/30/2020 1:45:00 AM 11.57 52.826 0.304 7.29 28.76 9.51
10/30/2020 2:00:00 AM 11.54 52.772 0.305 7.3 28.73 9.52
10/30/2020 2:15:00 AM 11.51 52.718 0.306 7.3 28.79 9.51
10/30/2020 2:30:00 AM 11.49 52.682 0.308 7.3 26.8 9.51
10/30/2020 2:45:00 AM 11.46 52.628 0.31 7.31 27.28 9.56
10/30/2020 3:00:00 AM 11.43 52.574 0.312 7.3 26.35 9.6
10/30/2020 3:15:00 AM 11.4 52.52 0.314 7.32 25.96 9.61
10/30/2020 3:30:00 AM 11.38 52.484 0.317 7.32 27.13 9.63
10/30/2020 3:45:00 AM 11.36 52.448 0.319 7.32 25.07 9.64
10/30/2020 4:00:00 AM 11.35 52.43 0.322 7.32 24.61 9.64
10/30/2020 4:15:00 AM 11.33 52.394 0.324 7.34 24.4 9.67
10/30/2020 4:30:00 AM 11.3 52.34 0.324 7.33 22.54 9.64
10/30/2020 4:45:00 AM 11.26 52.268 0.324 7.33 22.19 9.69
10/30/2020 5:00:00 AM 11.22 52.196 0.324 7.34 23.98 9.69
10/30/2020 5:15:00 AM 11.17 52.106 0.324 7.33 25.9 9.72
10/30/2020 5:30:00 AM 11.12 52.016 0.324 7.34 25.11 9.74
10/30/2020 5:45:00 AM 11.06 51.908 0.324 7.34 24.67 9.75
10/30/2020 6:00:00 AM 11.01 51.818 0.324 7.34 31.31 9.77
10/30/2020 6:15:00 AM 10.96 51.728 0.324 7.34 25.71 9.83
10/30/2020 6:30:00 AM 10.91 51.638 0.325 7.34 21.94 9.85
10/30/2020 6:45:00 AM 10.87 51.566 0.326 7.35 22.1 9.87
10/30/2020 7:00:00 AM 10.84 51.512 0.327 7.35 20.84 9.89
10/30/2020 7:15:00 AM 10.8 51.44 0.328 7.35 21.16 9.89
10/30/2020 7:30:00 AM 10.76 51.368 0.329 7.35 20.04 9.92
10/30/2020 7:45:00 AM 10.72 51.296 0.331 7.35 20.09 9.95
10/30/2020 8:00:00 AM 10.69 51.242 0.332 7.35 18.84 9.96
10/30/2020 8:15:00 AM 10.66 51.188 0.333 7.32 20.3 9.96
10/30/2020 8:30:00 AM 10.64 51.152 0.335 7.3 17.66 10
10/30/2020 8:45:00 AM 10.66 51.188 0.338 7.31 18.99 10.04
10/30/2020 9:00:00 AM 10.69 51.242 0.343 7.38 18.99 10.08
10/30/2020 9:15:00 AM 10.73 51.314 0.346 7.39 19.08 10.1
10/30/2020 9:30:00 AM 10.76 51.368 0.347 7.39 19.72 10.09
10/30/2020 9:45:00 AM 10.79 51.422 0.347 7.4 19.08 10.14
10/30/2020 10:00:00 AM 10.83 51.494 0.347 7.41 20.37 10.17
10/30/2020 10:15:00 AM 10.88 51.584 0.349 7.42 19.18 10.22
10/30/2020 10:30:00 AM 10.95 51.71 0.352 7.43 17.6 10.26
10/30/2020 10:45:00 AM 10.97 51.746 0.356 7.43 18.38 10.27
10/30/2020 11:00:00 AM 11 51.8 0.36 7.43 17.44 10.26
10/30/2020 11:15:00 AM 11.04 51.872 0.363 7.45 17.22 10.28
10/30/2020 11:30:00 AM 11.06 51.908 0.366 7.46 17.79 10.28
10/30/2020 11:45:00 AM 11.06 51.908 0.368 7.44 16.33 10.28
10/30/2020 12:00:00 PM 11.07 51.926 0.37 7.46 16.06 10.3
10/30/2020 12:15:00 PM 11.1 51.98 0.374 7.46 15.45 10.3
10/30/2020 12:30:00 PM 11.13 52.034 0.377 7.46 17.39 10.3
10/30/2020 12:45:00 PM 11.16 52.088 0.381 7.46 14.39 10.29
10/30/2020 1:00:00 PM 11.17 52.106 0.384 7.48 14.62 10.27
10/30/2020 1:15:00 PM 11.19 52.142 0.385 7.47 15.29 10.26
10/30/2020 1:30:00 PM 11.2 52.16 0.386 7.47 14.83 10.26
10/30/2020 1:45:00 PM 11.21 52.178 0.386 7.48 14.22 10.25
10/30/2020 2:00:00 PM 11.21 52.178 0.385 7.46 17.12 10.22
10/30/2020 2:15:00 PM 11.23 52.214 0.383 7.48 14.61 10.26
10/30/2020 2:30:00 PM 11.25 52.25 0.379 7.49 14.99 10.28
10/30/2020 2:45:00 PM 11.28 52.304 0.376 7.49 14.55 10.35
10/30/2020 3:00:00 PM 11.3 52.34 0.373 7.49 14.48 10.33
10/30/2020 3:15:00 PM 11.32 52.376 0.371 7.5 14.65 10.39
10/30/2020 3:30:00 PM 11.33 52.394 0.369 7.5 14.26 10.4
10/30/2020 3:45:00 PM 11.34 52.412 0.366 7.51 14.66 10.43
10/30/2020 4:00:00 PM 11.35 52.43 0.364 7.51 14.09 10.43
10/30/2020 4:15:00 PM 11.36 52.448 0.361 7.52 14.21 10.44
10/30/2020 4:30:00 PM 11.36 52.448 0.359 7.52 13.93 10.43
10/30/2020 4:45:00 PM 11.33 52.394 0.356 7.52 20.81 10.43
10/30/2020 5:00:00 PM 11.3 52.34 0.353 7.52 13.17 10.4
10/30/2020 5:15:00 PM 11.28 52.304 0.352 7.51 15.65 10.39
10/30/2020 5:30:00 PM 11.24 52.232 0.351 7.5 13.68 10.37
10/30/2020 5:45:00 PM 11.2 52.16 0.35 7.49 13.99 10.32
10/30/2020 6:00:00 PM 11.17 52.106 0.351 7.49 13.44 10.28
10/30/2020 6:15:00 PM 11.15 52.07 0.353 7.48 13 10.26
10/30/2020 6:30:00 PM 11.12 52.016 0.355 7.47 14.78 10.22
10/30/2020 6:45:00 PM 11.08 51.944 0.358 7.46 13.59 10.18
10/30/2020 7:00:00 PM 11.06 51.908 0.36 7.45 16.04 10.13
10/30/2020 7:15:00 PM 11.02 51.836 0.362 7.45 13.59 10.15
10/30/2020 7:30:00 PM 10.99 51.782 0.363 7.45 13.83 10.13
10/30/2020 7:45:00 PM 10.97 51.746 0.364 7.4 16.82 10.14
10/30/2020 8:00:00 PM 10.93 51.674 0.364 7.39 12.92 10.11
10/30/2020 8:15:00 PM 10.89 51.602 0.365 7.41 14.65 10.13
10/30/2020 8:30:00 PM 10.85 51.53 0.365 7.44 13.29 10.12
10/30/2020 8:45:00 PM 10.81 51.458 0.365 7.44 12.32 10.11
10/30/2020 9:00:00 PM 10.76 51.368 0.366 7.43 21.71 10.12
10/30/2020 9:15:00 PM 10.72 51.296 0.366 7.42 17.52 10.15
10/30/2020 9:30:00 PM 10.68 51.224 0.367 7.42 14.55 10.14
10/30/2020 9:45:00 PM 10.64 51.152 0.368 7.41 14.5 10.13
10/30/2020 10:00:00 PM 10.61 51.098 0.369 7.42 14.99 10.14
10/30/2020 10:15:00 PM 10.57 51.026 0.37 7.42 14.64 10.15
10/30/2020 10:30:00 PM 10.54 50.972 0.372 7.41 15.3 10.17
10/30/2020 10:45:00 PM 10.51 50.918 0.374 7.41 16.2 10.18
10/30/2020 11:00:00 PM 10.48 50.864 0.376 7.41 14.29 10.17
10/30/2020 11:15:00 PM 10.46 50.828 0.379 7.41 14.03 10.2
10/30/2020 11:30:00 PM 10.43 50.774 0.382 7.4 15.72 10.19
10/30/2020 11:45:00 PM 10.41 50.738 0.385 7.4 12.34 10.18
10/31/2020 12:00:00 AM 10.39 50.702 0.387 7.4 14.53 10.21
10/31/2020 12:15:00 AM 10.36 50.648 0.389 7.4 11.67 10.19
10/31/2020 12:30:00 AM 10.34 50.612 0.39 7.39 13.13 10.21
10/31/2020 12:45:00 AM 10.31 50.558 0.391 7.41 10.89 10.23
10/31/2020 1:00:00 AM 10.28 50.504 0.391 7.4 10.22 10.24
10/31/2020 1:15:00 AM 10.26 50.468 0.392 7.4 10.51 10.24
10/31/2020 1:30:00 AM 10.23 50.414 0.392 7.39 15.01 10.23
10/31/2020 1:45:00 AM 10.2 50.36 0.392 7.39 11.95 10.23
10/31/2020 2:00:00 AM 10.17 50.306 0.392 7.4 12.53 10.27
10/31/2020 2:15:00 AM 10.15 50.27 0.392 7.39 11.87 10.26
10/31/2020 2:30:00 AM 10.12 50.216 0.392 7.38 11.27 10.28
10/31/2020 2:45:00 AM 10.1 50.18 0.393 7.37 10.4 10.29
10/31/2020 3:00:00 AM 10.07 50.126 0.394 7.36 10.83 10.28
10/31/2020 3:15:00 AM 10.05 50.09 0.395 7.26 10.58 10.31
10/31/2020 3:30:00 AM 10.03 50.054 0.396 7.24 10.84 10.3
10/31/2020 3:45:00 AM 10 50 0.397 7.21 11.97 10.3
10/31/2020 4:00:00 AM 9.97 49.946 0.398 7.22 12.39 10.33
10/31/2020 4:15:00 AM 9.94 49.892 0.398 7.21 12.42 10.33
10/31/2020 4:30:00 AM 9.91 49.838 0.399 7.2 10.04 10.36
10/31/2020 4:45:00 AM 9.88 49.784 0.399 7.22 13.12 10.36
10/31/2020 5:00:00 AM 9.84 49.712 0.399 7.22 11.54 10.38
10/31/2020 5:15:00 AM 9.81 49.658 0.399 7.23 10.77 10.38
10/31/2020 5:30:00 AM 9.78 49.604 0.399 7.22 11.47 10.41
10/31/2020 5:45:00 AM 9.76 49.568 0.399 7.22 10.41 10.4
10/31/2020 6:00:00 AM 9.73 49.514 0.4 7.18 11.09 10.42
10/31/2020 6:15:00 AM 9.7 49.46 0.4 7.19 10.72 10.42
10/31/2020 6:30:00 AM 9.68 49.424 0.401 7.18 10.77 10.41
10/31/2020 6:45:00 AM 9.64 49.352 0.402 7.17 9.73 10.41
10/31/2020 7:00:00 AM 9.57 49.226 0.403 7.18 11.68 10.45
10/31/2020 7:15:00 AM 9.51 49.118 0.404 7.18 10.59 10.47
10/31/2020 7:30:00 AM 9.43 48.974 0.405 7.18 10.69 10.49
10/31/2020 7:45:00 AM 9.37 48.866 0.406 7.18 10.01 10.48
10/31/2020 8:00:00 AM 9.3 48.74 0.406 7.19 9.64 10.54
10/31/2020 8:15:00 AM 9.24 48.632 0.406 7.2 11.68 10.56
10/31/2020 8:30:00 AM 9.19 48.542 0.406 7.22 10.17 10.63
10/31/2020 8:45:00 AM 9.13 48.434 0.406 7.22 9.51 10.68
10/31/2020 9:00:00 AM 9.09 48.362 0.406 7.2 50.22 10.67
These are provisional data and have not been subject to a quality assurance process, but rather are the raw data reported by the instrument.

Data Availability & Limitations

Uncertainty and potential for error can be associated with environmental monitoring data. Provisional data have not been subject to a quality assurance process, but rather are the raw data reported by the instrument. Data users are cautioned to consider carefully the provisional nature of the information before using it for decisions that concern personal or public safety or the conduct of business that involves substantial monetary or operational consequences.

Approved data are currently available by request by emailing: srbc@srbc.net. Approved data have been subject to a quality assurance process to correct for equipment or fouling drift. Data recorded during equipment malfunctions have been removed.

View Historical Stations that have been been discontinued.